<?xml version='1.0' encoding='UTF-8'?><gpx version="1.1" creator="JPX - https://github.com/jenetics/jpx" xmlns="http://www.topografix.com/GPX/1/1"><trk><trkseg><trkpt lat="42.504950264453235" lon="8.83391060720006"><ele>389.0</ele><time>2026-05-04T08:10:35.999Z</time></trkpt><trkpt lat="42.50483397167708" lon="8.833836532166949"><ele>389.0</ele><time>2026-05-04T08:10:37.999Z</time></trkpt><trkpt lat="42.50477336505709" lon="8.83378246830715"><ele>389.0</ele><time>2026-05-04T08:10:38.999Z</time></trkpt><trkpt lat="42.50464991322892" lon="8.833718230773778"><ele>389.0</ele><time>2026-05-04T08:10:40.999Z</time></trkpt><trkpt lat="42.50453782902495" lon="8.833696673163194"><ele>389.0</ele><time>2026-05-04T08:10:43Z</time></trkpt><trkpt lat="42.504473760506265" lon="8.833709357678808"><ele>388.79999999999995</ele><time>2026-05-04T08:10:44Z</time></trkpt><trkpt lat="42.5043981720353" lon="8.833762726505753"><ele>388.59999999999997</ele><time>2026-05-04T08:10:45Z</time></trkpt><trkpt lat="42.504322043735" lon="8.833819786928807"><ele>388.4</ele><time>2026-05-04T08:10:46Z</time></trkpt><trkpt lat="42.50425918857223" lon="8.833860312198741"><ele>388.2</ele><time>2026-05-04T08:10:47Z</time></trkpt><trkpt lat="42.504203954228956" lon="8.833952656509556"><ele>388.0</ele><time>2026-05-04T08:10:49Z</time></trkpt><trkpt lat="42.50409573582409" lon="8.834028734000082"><ele>388.00000000000006</ele><time>2026-05-04T08:10:51Z</time></trkpt><trkpt lat="42.503988883435156" lon="8.834057377670991"><ele>388.0</ele><time>2026-05-04T08:10:53Z</time></trkpt><trkpt lat="42.503903643299495" lon="8.834081739459634"><ele>388.0</ele><time>2026-05-04T08:10:55Z</time></trkpt><trkpt lat="42.50380446851902" lon="8.834093039623813"><ele>388.0</ele><time>2026-05-04T08:10:58Z</time></trkpt><trkpt lat="42.50374038894262" lon="8.834069217067498"><ele>388.00000000000006</ele><time>2026-05-04T08:11:00Z</time></trkpt><trkpt lat="42.50366994174347" lon="8.8340631893051"><ele>388.0</ele><time>2026-05-04T08:11:10Z</time></trkpt><trkpt lat="42.50359724594738" lon="8.834009248984703"><ele>389.50000000000006</ele><time>2026-05-04T08:11:12.001Z</time></trkpt><trkpt lat="42.50352903322894" lon="8.833987378835435"><ele>391.0</ele><time>2026-05-04T08:11:15.001Z</time></trkpt><trkpt lat="42.50344217564109" lon="8.833950028531047"><ele>392.5</ele><time>2026-05-04T08:11:17.001Z</time></trkpt><trkpt lat="42.50336320468617" lon="8.833904330931457"><ele>394.0</ele><time>2026-05-04T08:11:42.001Z</time></trkpt><trkpt lat="42.50329397953188" lon="8.833893835625851"><ele>395.50000000000006</ele><time>2026-05-04T08:11:45.001Z</time></trkpt><trkpt lat="42.50321974449689" lon="8.833879108127947"><ele>397.0</ele><time>2026-05-04T08:11:48.001Z</time></trkpt><trkpt lat="42.50315488667471" lon="8.833885121927091"><ele>397.00000000000006</ele><time>2026-05-04T08:11:50.001Z</time></trkpt><trkpt lat="42.5030671651645" lon="8.833869400192837"><ele>397.0</ele><time>2026-05-04T08:11:53.001Z</time></trkpt><trkpt lat="42.50299549642168" lon="8.833874804070435"><ele>397.0</ele><time>2026-05-04T08:11:55.001Z</time></trkpt><trkpt lat="42.502919634516246" lon="8.833853088260398"><ele>397.0</ele><time>2026-05-04T08:11:58.001Z</time></trkpt><trkpt lat="42.502869767744514" lon="8.833784225559159"><ele>397.00000000000006</ele><time>2026-05-04T08:12:01.001Z</time></trkpt><trkpt lat="42.50278685456035" lon="8.833748654565936"><ele>397.0</ele><time>2026-05-04T08:12:03.001Z</time></trkpt><trkpt lat="42.50269132860573" lon="8.833720958912156"><ele>399.00000000000006</ele><time>2026-05-04T08:12:06.001Z</time></trkpt><trkpt lat="42.50262414981834" lon="8.833695161812686"><ele>401.0</ele><time>2026-05-04T08:12:08.001Z</time></trkpt><trkpt lat="42.50252013870318" lon="8.833647444734114"><ele>403.0</ele><time>2026-05-04T08:12:10.001Z</time></trkpt><trkpt lat="42.50243521017453" lon="8.833599774331935"><ele>405.0</ele><time>2026-05-04T08:12:12.001Z</time></trkpt><trkpt lat="42.50237178840951" lon="8.83356460765699"><ele>407.00000000000006</ele><time>2026-05-04T08:12:15.001Z</time></trkpt><trkpt lat="42.502309393816944" lon="8.833543037901446"><ele>409.0</ele><time>2026-05-04T08:12:17.001Z</time></trkpt><trkpt lat="42.50222949206505" lon="8.833498657043428"><ele>408.00000000000006</ele><time>2026-05-04T08:12:19Z</time></trkpt><trkpt lat="42.50212093950233" lon="8.833460108849803"><ele>407.0</ele><time>2026-05-04T08:12:21Z</time></trkpt><trkpt lat="42.50204865682074" lon="8.833441127934238"><ele>406.0</ele><time>2026-05-04T08:12:23Z</time></trkpt><trkpt lat="42.501962504662444" lon="8.83340535683759"><ele>405.0</ele><time>2026-05-04T08:12:26Z</time></trkpt><trkpt lat="42.501902660745" lon="8.833378568162185"><ele>404.00000000000006</ele><time>2026-05-04T08:12:30Z</time></trkpt><trkpt lat="42.50181686830627" lon="8.83335848559237"><ele>403.0</ele><time>2026-05-04T08:12:32Z</time></trkpt><trkpt lat="42.501741953616055" lon="8.833305266310623"><ele>403.00000000000006</ele><time>2026-05-04T08:12:59Z</time></trkpt><trkpt lat="42.50165305586086" lon="8.83326329583545"><ele>403.0</ele><time>2026-05-04T08:13:11Z</time></trkpt><trkpt lat="42.50156975808375" lon="8.833228319328793"><ele>403.0</ele><time>2026-05-04T08:13:14Z</time></trkpt><trkpt lat="42.50150102358138" lon="8.833233674549293"><ele>403.0</ele><time>2026-05-04T08:13:16Z</time></trkpt><trkpt lat="42.50142705469457" lon="8.83320068878768"><ele>403.00000000000006</ele><time>2026-05-04T08:13:18Z</time></trkpt><trkpt lat="42.501335583042874" lon="8.833165431360568"><ele>403.0</ele><time>2026-05-04T08:13:20Z</time></trkpt><trkpt lat="42.50124770843303" lon="8.833161610244687"><ele>405.79999999999995</ele><time>2026-05-04T08:13:22Z</time></trkpt><trkpt lat="42.50116579456262" lon="8.833136089255081"><ele>408.6</ele><time>2026-05-04T08:13:24Z</time></trkpt><trkpt lat="42.50109282783585" lon="8.833148950517069"><ele>411.4</ele><time>2026-05-04T08:13:26Z</time></trkpt><trkpt lat="42.50101287079783" lon="8.833112326575423"><ele>414.20000000000005</ele><time>2026-05-04T08:13:28Z</time></trkpt><trkpt lat="42.50092083694606" lon="8.833056849906653"><ele>417.0</ele><time>2026-05-04T08:13:30Z</time></trkpt><trkpt lat="42.500825366383154" lon="8.832980266087674"><ele>417.0</ele><time>2026-05-04T08:13:32Z</time></trkpt><trkpt lat="42.500772447835935" lon="8.832926523117873"><ele>417.0</ele><time>2026-05-04T08:13:34Z</time></trkpt><trkpt lat="42.50069322570566" lon="8.832892925268766"><ele>417.0</ele><time>2026-05-04T08:13:36Z</time></trkpt><trkpt lat="42.50061778766256" lon="8.832821581354363"><ele>417.0</ele><time>2026-05-04T08:13:38Z</time></trkpt><trkpt lat="42.500529862773654" lon="8.832811867449347"><ele>417.0</ele><time>2026-05-04T08:13:40Z</time></trkpt><trkpt lat="42.50045681023675" lon="8.832792041793295"><ele>417.0</ele><time>2026-05-04T08:13:43Z</time></trkpt><trkpt lat="42.500382039112104" lon="8.832781580567277"><ele>417.6666666666667</ele><time>2026-05-04T08:14:35Z</time></trkpt><trkpt lat="42.500294325959686" lon="8.832764608122714"><ele>418.33333333333337</ele><time>2026-05-04T08:14:48Z</time></trkpt><trkpt lat="42.5002305385093" lon="8.83270940047335"><ele>419.0</ele><time>2026-05-04T08:15:11Z</time></trkpt><trkpt lat="42.50017666366983" lon="8.832656682670962"><ele>419.6666666666667</ele><time>2026-05-04T08:15:13Z</time></trkpt><trkpt lat="42.500106811986086" lon="8.832557835314898"><ele>420.33333333333337</ele><time>2026-05-04T08:15:16Z</time></trkpt><trkpt lat="42.500037363438196" lon="8.83246504037699"><ele>421.0</ele><time>2026-05-04T08:15:18Z</time></trkpt><trkpt lat="42.499959810254005" lon="8.832373741074656"><ele>421.00000000000006</ele><time>2026-05-04T08:15:20Z</time></trkpt><trkpt lat="42.499860003829774" lon="8.832325666752963"><ele>421.0</ele><time>2026-05-04T08:15:22Z</time></trkpt><trkpt lat="42.49979503724741" lon="8.832279721252466"><ele>421.0</ele><time>2026-05-04T08:15:24Z</time></trkpt><trkpt lat="42.499733717180746" lon="8.832207091528153"><ele>421.0</ele><time>2026-05-04T08:15:29Z</time></trkpt><trkpt lat="42.49968353787275" lon="8.83214036051761"><ele>421.00000000000006</ele><time>2026-05-04T08:15:33Z</time></trkpt><trkpt lat="42.49959481072439" lon="8.83205058073592"><ele>421.0</ele><time>2026-05-04T08:15:35Z</time></trkpt><trkpt lat="42.49952722059797" lon="8.83201503805009"><ele>421.6</ele><time>2026-05-04T08:15:37Z</time></trkpt><trkpt lat="42.49944214088352" lon="8.831976037196759"><ele>422.20000000000005</ele><time>2026-05-04T08:15:39Z</time></trkpt><trkpt lat="42.49933587411862" lon="8.83192413278967"><ele>422.79999999999995</ele><time>2026-05-04T08:15:41Z</time></trkpt><trkpt lat="42.49923469764905" lon="8.831875890468615"><ele>423.4</ele><time>2026-05-04T08:15:43Z</time></trkpt><trkpt lat="42.49917093403654" lon="8.83184845881937"><ele>424.0</ele><time>2026-05-04T08:15:44Z</time></trkpt><trkpt lat="42.49908448724877" lon="8.83179203641222"><ele>424.0</ele><time>2026-05-04T08:15:46Z</time></trkpt><trkpt lat="42.49900801740538" lon="8.83174266297642"><ele>424.0</ele><time>2026-05-04T08:15:50Z</time></trkpt><trkpt lat="42.4989294664" lon="8.831685236074657"><ele>424.0</ele><time>2026-05-04T08:15:52Z</time></trkpt><trkpt lat="42.49883461278616" lon="8.831587698806008"><ele>424.0</ele><time>2026-05-04T08:15:54Z</time></trkpt><trkpt lat="42.49875558357032" lon="8.831490228603101"><ele>424.0</ele><time>2026-05-04T08:15:56Z</time></trkpt><trkpt lat="42.49869998196205" lon="8.83143141628113"><ele>428.50000000000006</ele><time>2026-05-04T08:15:57Z</time></trkpt><trkpt lat="42.498599020436295" lon="8.83137576517386"><ele>433.0</ele><time>2026-05-04T08:15:59Z</time></trkpt><trkpt lat="42.49853959342299" lon="8.83134136468143"><ele>437.5</ele><time>2026-05-04T08:16:01Z</time></trkpt><trkpt lat="42.498490339861576" lon="8.831272189383592"><ele>442.0</ele><time>2026-05-04T08:16:03Z</time></trkpt><trkpt lat="42.49841199895817" lon="8.831207960559516"><ele>446.50000000000006</ele><time>2026-05-04T08:16:06Z</time></trkpt><trkpt lat="42.49833945044073" lon="8.831203710219613"><ele>451.0</ele><time>2026-05-04T08:16:09Z</time></trkpt><trkpt lat="42.49827185389342" lon="8.831148344049234"><ele>451.00000000000006</ele><time>2026-05-04T08:16:12Z</time></trkpt><trkpt lat="42.498192297376825" lon="8.831103573496264"><ele>451.0</ele><time>2026-05-04T08:16:15Z</time></trkpt><trkpt lat="42.498136418414575" lon="8.831055281091317"><ele>451.0</ele><time>2026-05-04T08:16:25Z</time></trkpt><trkpt lat="42.49810837696588" lon="8.830965266849983"><ele>451.0</ele><time>2026-05-04T08:16:27Z</time></trkpt><trkpt lat="42.49805600279208" lon="8.830888028250591"><ele>451.00000000000006</ele><time>2026-05-04T08:16:29Z</time></trkpt><trkpt lat="42.49799783728192" lon="8.830835084855355"><ele>451.0</ele><time>2026-05-04T08:16:31Z</time></trkpt><trkpt lat="42.49795581831043" lon="8.8307235983231"><ele>453.6666666666667</ele><time>2026-05-04T08:16:34Z</time></trkpt><trkpt lat="42.49789811533629" lon="8.830642621686435"><ele>456.33333333333337</ele><time>2026-05-04T08:16:36Z</time></trkpt><trkpt lat="42.49783197147554" lon="8.830586977408206"><ele>459.0</ele><time>2026-05-04T08:16:38Z</time></trkpt><trkpt lat="42.49775546803448" lon="8.830489606194567"><ele>461.66666666666663</ele><time>2026-05-04T08:17:12Z</time></trkpt><trkpt lat="42.497708115268225" lon="8.830422283428238"><ele>464.3333333333333</ele><time>2026-05-04T08:17:14Z</time></trkpt><trkpt lat="42.49767163880359" lon="8.830347437570216"><ele>467.0</ele><time>2026-05-04T08:17:20Z</time></trkpt><trkpt lat="42.49763612260975" lon="8.83025638590644"><ele>466.99999999999994</ele><time>2026-05-04T08:17:22Z</time></trkpt><trkpt lat="42.49757597940564" lon="8.830174816594646"><ele>467.0</ele><time>2026-05-04T08:17:25Z</time></trkpt><trkpt lat="42.49753369942391" lon="8.830110379850032"><ele>467.0</ele><time>2026-05-04T08:17:28Z</time></trkpt><trkpt lat="42.49748706071747" lon="8.83003277442535"><ele>467.0</ele><time>2026-05-04T08:17:31Z</time></trkpt><trkpt lat="42.49740240100237" lon="8.829957156648948"><ele>466.99999999999994</ele><time>2026-05-04T08:17:34Z</time></trkpt><trkpt lat="42.497318525212314" lon="8.829896770059626"><ele>467.0</ele><time>2026-05-04T08:17:36Z</time></trkpt><trkpt lat="42.49724445190016" lon="8.82982185670014"><ele>464.49999999999994</ele><time>2026-05-04T08:17:38Z</time></trkpt><trkpt lat="42.49718674526379" lon="8.829759576058908"><ele>462.0</ele><time>2026-05-04T08:17:41Z</time></trkpt><trkpt lat="42.49711143630485" lon="8.829730356716338"><ele>459.5</ele><time>2026-05-04T08:17:43Z</time></trkpt><trkpt lat="42.497025087679326" lon="8.829698711824932"><ele>457.0</ele><time>2026-05-04T08:17:45Z</time></trkpt><trkpt lat="42.496973629914145" lon="8.829634818584445"><ele>454.49999999999994</ele><time>2026-05-04T08:18:17Z</time></trkpt><trkpt lat="42.496883203736616" lon="8.829592004247711"><ele>452.0</ele><time>2026-05-04T08:18:19Z</time></trkpt><trkpt lat="42.4967863560016" lon="8.829543503645581"><ele>457.8333333333333</ele><time>2026-05-04T08:18:21Z</time></trkpt><trkpt lat="42.4966802834709" lon="8.829518151003075"><ele>463.66666666666663</ele><time>2026-05-04T08:18:23Z</time></trkpt><trkpt lat="42.496604471890144" lon="8.829458690121305"><ele>469.5</ele><time>2026-05-04T08:18:25Z</time></trkpt><trkpt lat="42.496522788247134" lon="8.82944018727478"><ele>475.33333333333337</ele><time>2026-05-04T08:18:27Z</time></trkpt><trkpt lat="42.49643864485735" lon="8.829430460216946"><ele>481.1666666666667</ele><time>2026-05-04T08:18:29Z</time></trkpt><trkpt lat="42.49636653303685" lon="8.829406853210532"><ele>487.0</ele><time>2026-05-04T08:18:31Z</time></trkpt><trkpt lat="42.49628247252147" lon="8.829397013898546"><ele>488.50000000000006</ele><time>2026-05-04T08:18:33Z</time></trkpt><trkpt lat="42.49618537450025" lon="8.829403262686522"><ele>490.0</ele><time>2026-05-04T08:18:35Z</time></trkpt><trkpt lat="42.49611224377957" lon="8.829444493000349"><ele>491.5</ele><time>2026-05-04T08:18:37Z</time></trkpt><trkpt lat="42.49603556179564" lon="8.82946631629528"><ele>493.0</ele><time>2026-05-04T08:18:40Z</time></trkpt><trkpt lat="42.49596874860455" lon="8.82949443525126"><ele>494.50000000000006</ele><time>2026-05-04T08:18:42Z</time></trkpt><trkpt lat="42.495890852160386" lon="8.829501028835411"><ele>496.0</ele><time>2026-05-04T08:18:45Z</time></trkpt><trkpt lat="42.49583148980471" lon="8.829534917830541"><ele>496.00000000000006</ele><time>2026-05-04T08:18:47Z</time></trkpt><trkpt lat="42.495766295177866" lon="8.82951098706345"><ele>496.0</ele><time>2026-05-04T08:18:51Z</time></trkpt><trkpt lat="42.49569070627724" lon="8.829522375831472"><ele>496.0</ele><time>2026-05-04T08:18:53Z</time></trkpt><trkpt lat="42.495610556555924" lon="8.82957099854504"><ele>496.0</ele><time>2026-05-04T08:18:56Z</time></trkpt><trkpt lat="42.495525103153895" lon="8.829566441956088"><ele>496.00000000000006</ele><time>2026-05-04T08:18:59Z</time></trkpt><trkpt lat="42.49545331488512" lon="8.829554157150126"><ele>496.0</ele><time>2026-05-04T08:19:01Z</time></trkpt><trkpt lat="42.49537035565798" lon="8.829476548992734"><ele>497.14285714285717</ele><time>2026-05-04T08:19:04Z</time></trkpt><trkpt lat="42.49530958295717" lon="8.829440231916376"><ele>498.28571428571433</ele><time>2026-05-04T08:19:06Z</time></trkpt><trkpt lat="42.49523378073509" lon="8.829409974710961"><ele>499.42857142857144</ele><time>2026-05-04T08:19:09Z</time></trkpt><trkpt lat="42.4951616198466" lon="8.829418877346479"><ele>500.57142857142856</ele><time>2026-05-04T08:19:17Z</time></trkpt><trkpt lat="42.49509775236383" lon="8.829433738660597"><ele>501.7142857142857</ele><time>2026-05-04T08:20:12Z</time></trkpt><trkpt lat="42.495034249790365" lon="8.829426997739985"><ele>502.8571428571429</ele><time>2026-05-04T08:20:23Z</time></trkpt><trkpt lat="42.49497882273066" lon="8.82936310065242"><ele>504.0</ele><time>2026-05-04T08:20:27Z</time></trkpt><trkpt lat="42.49489921810768" lon="8.829367831512393"><ele>504.0</ele><time>2026-05-04T08:22:34Z</time></trkpt><trkpt lat="42.49480927522508" lon="8.829321279411632"><ele>504.0</ele><time>2026-05-04T08:22:37Z</time></trkpt><trkpt lat="42.49471542288884" lon="8.829270481122165"><ele>504.0</ele><time>2026-05-04T08:22:39Z</time></trkpt><trkpt lat="42.49464140599613" lon="8.829309334781595"><ele>504.0</ele><time>2026-05-04T08:22:41Z</time></trkpt><trkpt lat="42.49460072218929" lon="8.829415775044414"><ele>504.0</ele><time>2026-05-04T08:22:43Z</time></trkpt><trkpt lat="42.49459082303603" lon="8.829508422493854"><ele>504.0</ele><time>2026-05-04T08:22:45Z</time></trkpt><trkpt lat="42.494538696207535" lon="8.82957397809081"><ele>502.2857142857143</ele><time>2026-05-04T08:22:48Z</time></trkpt><trkpt lat="42.49448656631603" lon="8.829633611737995"><ele>500.57142857142856</ele><time>2026-05-04T08:22:51Z</time></trkpt><trkpt lat="42.49444335973538" lon="8.82970645007814"><ele>498.8571428571429</ele><time>2026-05-04T08:22:59Z</time></trkpt><trkpt lat="42.49439353187361" lon="8.82979511643217"><ele>497.14285714285717</ele><time>2026-05-04T08:23:03Z</time></trkpt><trkpt lat="42.49433728955508" lon="8.829846518151612"><ele>495.42857142857144</ele><time>2026-05-04T08:23:05Z</time></trkpt><trkpt lat="42.49428664351735" lon="8.829916805093642"><ele>493.7142857142858</ele><time>2026-05-04T08:23:07Z</time></trkpt><trkpt lat="42.494236993862025" lon="8.829988333517539"><ele>492.00000000000006</ele><time>2026-05-04T08:23:09Z</time></trkpt><trkpt lat="42.49418208314029" lon="8.830063234322907"><ele>492.0</ele><time>2026-05-04T08:23:15Z</time></trkpt><trkpt lat="42.49410803150537" lon="8.830135424704325"><ele>492.0</ele><time>2026-05-04T08:23:23Z</time></trkpt><trkpt lat="42.49402983411481" lon="8.830192511927416"><ele>492.0</ele><time>2026-05-04T08:23:26Z</time></trkpt><trkpt lat="42.49396584353327" lon="8.83021403967868"><ele>492.0</ele><time>2026-05-04T08:23:28Z</time></trkpt><trkpt lat="42.493900570996296" lon="8.830173660843645"><ele>492.0</ele><time>2026-05-04T08:23:30Z</time></trkpt><trkpt lat="42.4938198324356" lon="8.830155303650269"><ele>492.0</ele><time>2026-05-04T08:23:33Z</time></trkpt><trkpt lat="42.49374258659452" lon="8.83017273703236"><ele>494.3333333333333</ele><time>2026-05-04T08:23:36Z</time></trkpt><trkpt lat="42.493674556669305" lon="8.830160621325229"><ele>496.66666666666663</ele><time>2026-05-04T08:23:45Z</time></trkpt><trkpt lat="42.493598785920156" lon="8.830170884929696"><ele>499.0</ele><time>2026-05-04T08:23:49Z</time></trkpt><trkpt lat="42.49351009570389" lon="8.83016205192218"><ele>501.3333333333333</ele><time>2026-05-04T08:23:52Z</time></trkpt><trkpt lat="42.49343651154682" lon="8.830162551990275"><ele>503.66666666666663</ele><time>2026-05-04T08:23:59Z</time></trkpt><trkpt lat="42.49337625847325" lon="8.83021698281682"><ele>506.0</ele><time>2026-05-04T08:24:01Z</time></trkpt><trkpt lat="42.49331947592939" lon="8.830284387673455"><ele>505.99999999999994</ele><time>2026-05-04T08:24:03Z</time></trkpt><trkpt lat="42.49326075080499" lon="8.830332883144226"><ele>506.0</ele><time>2026-05-04T08:24:05Z</time></trkpt><trkpt lat="42.493198847871184" lon="8.830371544159197"><ele>506.0</ele><time>2026-05-04T08:24:07Z</time></trkpt><trkpt lat="42.493124102723904" lon="8.830433011617236"><ele>506.0</ele><time>2026-05-04T08:24:09Z</time></trkpt><trkpt lat="42.49306087651102" lon="8.830479705764704"><ele>505.99999999999994</ele><time>2026-05-04T08:24:11Z</time></trkpt><trkpt lat="42.493017605760535" lon="8.83056576536873"><ele>506.0</ele><time>2026-05-04T08:24:14Z</time></trkpt><trkpt lat="42.49296567337522" lon="8.830654132769585"><ele>503.99999999999994</ele><time>2026-05-04T08:24:16Z</time></trkpt><trkpt lat="42.49291811672707" lon="8.830774818631049"><ele>502.0</ele><time>2026-05-04T08:24:19Z</time></trkpt><trkpt lat="42.492868607198865" lon="8.830874438841738"><ele>500.0</ele><time>2026-05-04T08:24:21Z</time></trkpt><trkpt lat="42.492839973218466" lon="8.830967366323438"><ele>498.0</ele><time>2026-05-04T08:24:23Z</time></trkpt><trkpt lat="42.492838230625644" lon="8.831058005388767"><ele>495.99999999999994</ele><time>2026-05-04T08:24:25Z</time></trkpt><trkpt lat="42.49280924546563" lon="8.831154626152491"><ele>494.0</ele><time>2026-05-04T08:24:27Z</time></trkpt><trkpt lat="42.49276781651121" lon="8.831250646401214"><ele>493.99999999999994</ele><time>2026-05-04T08:24:29Z</time></trkpt><trkpt lat="42.492725990057494" lon="8.831345403296783"><ele>494.0</ele><time>2026-05-04T08:24:31Z</time></trkpt><trkpt lat="42.492684012568624" lon="8.831441360101334"><ele>494.0</ele><time>2026-05-04T08:24:33Z</time></trkpt><trkpt lat="42.49265515260624" lon="8.8315504295886"><ele>494.0</ele><time>2026-05-04T08:24:36Z</time></trkpt><trkpt lat="42.49264389245007" lon="8.83163465528167"><ele>493.99999999999994</ele><time>2026-05-04T08:24:38Z</time></trkpt><trkpt lat="42.492598033261224" lon="8.831710726930627"><ele>494.0</ele><time>2026-05-04T08:24:42Z</time></trkpt><trkpt lat="42.49253279067369" lon="8.831804964274719"><ele>496.8333333333333</ele><time>2026-05-04T08:24:44Z</time></trkpt><trkpt lat="42.49250137917021" lon="8.831901557927269"><ele>499.66666666666663</ele><time>2026-05-04T08:24:46Z</time></trkpt><trkpt lat="42.492445298949804" lon="8.831989909768362"><ele>502.5</ele><time>2026-05-04T08:24:49Z</time></trkpt><trkpt lat="42.49239731092554" lon="8.832083400290495"><ele>505.33333333333337</ele><time>2026-05-04T08:24:52Z</time></trkpt><trkpt lat="42.49231335784621" lon="8.832171458543533"><ele>508.1666666666667</ele><time>2026-05-04T08:24:55Z</time></trkpt><trkpt lat="42.49227793633921" lon="8.832246352850495"><ele>511.0</ele><time>2026-05-04T08:24:57Z</time></trkpt><trkpt lat="42.49223437426859" lon="8.832319777815465"><ele>511.00000000000006</ele><time>2026-05-04T08:24:59Z</time></trkpt><trkpt lat="42.49217847128937" lon="8.832398957488003"><ele>511.0</ele><time>2026-05-04T08:25:02Z</time></trkpt><trkpt lat="42.49213242721823" lon="8.832486973275195"><ele>511.0</ele><time>2026-05-04T08:25:04Z</time></trkpt><trkpt lat="42.49206493116743" lon="8.83252323915773"><ele>511.0</ele><time>2026-05-04T08:25:06Z</time></trkpt><trkpt lat="42.49198826812979" lon="8.83255591756094"><ele>511.00000000000006</ele><time>2026-05-04T08:25:08Z</time></trkpt><trkpt lat="42.49192557812354" lon="8.83261276978326"><ele>511.0</ele><time>2026-05-04T08:25:10Z</time></trkpt><trkpt lat="42.49186543501548" lon="8.832680220394437"><ele>509.00000000000006</ele><time>2026-05-04T08:25:12Z</time></trkpt><trkpt lat="42.4918204937765" lon="8.83276400244562"><ele>507.0</ele><time>2026-05-04T08:25:14Z</time></trkpt><trkpt lat="42.49180994811304" lon="8.832852870373499"><ele>505.0</ele><time>2026-05-04T08:25:16Z</time></trkpt><trkpt lat="42.49180221412455" lon="8.832939941911784"><ele>503.0</ele><time>2026-05-04T08:25:19Z</time></trkpt><trkpt lat="42.49179113767462" lon="8.833071817531724"><ele>501.00000000000006</ele><time>2026-05-04T08:25:22Z</time></trkpt><trkpt lat="42.49179671223716" lon="8.833195346130148"><ele>499.0</ele><time>2026-05-04T08:25:24Z</time></trkpt><trkpt lat="42.491780051805215" lon="8.83329341581524"><ele>499.0</ele><time>2026-05-04T08:25:26Z</time></trkpt><trkpt lat="42.491791550972366" lon="8.83345309566051"><ele>499.0</ele><time>2026-05-04T08:25:28Z</time></trkpt><trkpt lat="42.491799029883005" lon="8.833601655873318"><ele>499.0</ele><time>2026-05-04T08:25:30Z</time></trkpt><trkpt lat="42.49177893638456" lon="8.833710101342401"><ele>499.0</ele><time>2026-05-04T08:25:32Z</time></trkpt><trkpt lat="42.491752721884474" lon="8.833825361325038"><ele>499.0</ele><time>2026-05-04T08:25:34Z</time></trkpt><trkpt lat="42.491734316449325" lon="8.833955759396563"><ele>498.6666666666667</ele><time>2026-05-04T08:25:36Z</time></trkpt><trkpt lat="42.49171049675646" lon="8.834043297740784"><ele>498.33333333333337</ele><time>2026-05-04T08:25:37Z</time></trkpt><trkpt lat="42.491703641264245" lon="8.834144637629047"><ele>498.0</ele><time>2026-05-04T08:25:39Z</time></trkpt><trkpt lat="42.49171737683517" lon="8.834255773014583"><ele>497.66666666666663</ele><time>2026-05-04T08:26:02Z</time></trkpt><trkpt lat="42.49175295133937" lon="8.83438405464898"><ele>497.3333333333333</ele><time>2026-05-04T08:26:04Z</time></trkpt><trkpt lat="42.491783646303944" lon="8.834459168744305"><ele>497.0</ele><time>2026-05-04T08:26:05Z</time></trkpt><trkpt lat="42.49182247898633" lon="8.834528139864142"><ele>495.66666666666663</ele><time>2026-05-04T08:26:06Z</time></trkpt><trkpt lat="42.491840336243776" lon="8.834668780560287"><ele>494.3333333333333</ele><time>2026-05-04T08:26:08Z</time></trkpt><trkpt lat="42.491861552483755" lon="8.834783721040605"><ele>493.0</ele><time>2026-05-04T08:26:10Z</time></trkpt><trkpt lat="42.49188859196744" lon="8.83488602939092"><ele>491.66666666666663</ele><time>2026-05-04T08:26:12Z</time></trkpt><trkpt lat="42.491908686421255" lon="8.834976032214417"><ele>490.3333333333333</ele><time>2026-05-04T08:26:14Z</time></trkpt><trkpt lat="42.491933018887345" lon="8.835080974016476"><ele>489.0</ele><time>2026-05-04T08:26:16Z</time></trkpt><trkpt lat="42.49195106315424" lon="8.835168203588388"><ele>486.6666666666667</ele><time>2026-05-04T08:26:18Z</time></trkpt><trkpt lat="42.4919625953579" lon="8.83526015666416"><ele>484.33333333333337</ele><time>2026-05-04T08:26:20Z</time></trkpt><trkpt lat="42.491931176546444" lon="8.835360924137504"><ele>482.0</ele><time>2026-05-04T08:26:23Z</time></trkpt><trkpt lat="42.49189508343743" lon="8.835455318347728"><ele>479.6666666666667</ele><time>2026-05-04T08:26:26Z</time></trkpt><trkpt lat="42.491845999269614" lon="8.835513559829351"><ele>477.33333333333337</ele><time>2026-05-04T08:26:29Z</time></trkpt><trkpt lat="42.49176914149034" lon="8.83550079473061"><ele>475.0</ele><time>2026-05-04T08:26:32Z</time></trkpt><trkpt lat="42.49168093100738" lon="8.83551812928709"><ele>475.00000000000006</ele><time>2026-05-04T08:26:35Z</time></trkpt><trkpt lat="42.49161015283911" lon="8.835547832069082"><ele>475.0</ele><time>2026-05-04T08:26:37Z</time></trkpt><trkpt lat="42.491521014207244" lon="8.83557044873359"><ele>475.0</ele><time>2026-05-04T08:26:40Z</time></trkpt><trkpt lat="42.49144293704421" lon="8.835603094884338"><ele>475.0</ele><time>2026-05-04T08:26:43Z</time></trkpt><trkpt lat="42.4913616643596" lon="8.835648865693546"><ele>475.00000000000006</ele><time>2026-05-04T08:26:46Z</time></trkpt><trkpt lat="42.49128838070439" lon="8.835662248526953"><ele>475.0</ele><time>2026-05-04T08:26:48Z</time></trkpt><trkpt lat="42.491229616831255" lon="8.835713270049595"><ele>473.50000000000006</ele><time>2026-05-04T08:26:50Z</time></trkpt><trkpt lat="42.491167482806176" lon="8.835748271535596"><ele>472.0</ele><time>2026-05-04T08:26:52Z</time></trkpt><trkpt lat="42.49111182607422" lon="8.835855218727799"><ele>470.5</ele><time>2026-05-04T08:26:55Z</time></trkpt><trkpt lat="42.491088955818896" lon="8.835942646740696"><ele>469.0</ele><time>2026-05-04T08:26:57Z</time></trkpt><trkpt lat="42.491089112611206" lon="8.836036007018462"><ele>467.50000000000006</ele><time>2026-05-04T08:26:59Z</time></trkpt><trkpt lat="42.49111494396334" lon="8.836138484823675"><ele>466.0</ele><time>2026-05-04T08:27:02Z</time></trkpt><trkpt lat="42.491129466945566" lon="8.836245732455652"><ele>464.83333333333337</ele><time>2026-05-04T08:27:05Z</time></trkpt><trkpt lat="42.491112962553665" lon="8.836332639417506"><ele>463.6666666666667</ele><time>2026-05-04T08:27:10Z</time></trkpt><trkpt lat="42.49107176744063" lon="8.836424159756668"><ele>462.5</ele><time>2026-05-04T08:27:12Z</time></trkpt><trkpt lat="42.49106290674659" lon="8.836525419638036"><ele>461.33333333333337</ele><time>2026-05-04T08:27:14Z</time></trkpt><trkpt lat="42.49103199023445" lon="8.836643205212503"><ele>460.1666666666667</ele><time>2026-05-04T08:27:19Z</time></trkpt><trkpt lat="42.490992183385835" lon="8.836717104028041"><ele>459.0</ele><time>2026-05-04T08:27:22Z</time></trkpt><trkpt lat="42.490997078987135" lon="8.836834369024887"><ele>458.3333333333333</ele><time>2026-05-04T08:27:26Z</time></trkpt><trkpt lat="42.491000828550995" lon="8.836948241123746"><ele>457.66666666666663</ele><time>2026-05-04T08:27:30Z</time></trkpt><trkpt lat="42.49105254605806" lon="8.837014138717905"><ele>457.0</ele><time>2026-05-04T08:27:33Z</time></trkpt><trkpt lat="42.491083159522134" lon="8.837098343954727"><ele>456.3333333333333</ele><time>2026-05-04T08:27:36Z</time></trkpt><trkpt lat="42.491099577633456" lon="8.837200481326184"><ele>455.66666666666663</ele><time>2026-05-04T08:27:39Z</time></trkpt><trkpt lat="42.491107711652305" lon="8.837291936300879"><ele>455.0</ele><time>2026-05-04T08:27:41Z</time></trkpt><trkpt lat="42.49112573600947" lon="8.837414518625721"><ele>454.99999999999994</ele><time>2026-05-04T08:27:43Z</time></trkpt><trkpt lat="42.491139928849385" lon="8.83750362908761"><ele>455.0</ele><time>2026-05-04T08:27:45Z</time></trkpt><trkpt lat="42.49116100677325" lon="8.837597152288229"><ele>455.0</ele><time>2026-05-04T08:28:03Z</time></trkpt><trkpt lat="42.49123918829649" lon="8.837605793631777"><ele>455.0</ele><time>2026-05-04T08:28:05Z</time></trkpt><trkpt lat="42.49129498532465" lon="8.837553320895745"><ele>454.99999999999994</ele><time>2026-05-04T08:28:07Z</time></trkpt><trkpt lat="42.49135655354596" lon="8.837521089198372"><ele>455.0</ele><time>2026-05-04T08:28:10Z</time></trkpt><trkpt lat="42.49145739942592" lon="8.837521338378652"><ele>453.66666666666663</ele><time>2026-05-04T08:28:13Z</time></trkpt><trkpt lat="42.491537850798025" lon="8.837527093035055"><ele>452.3333333333333</ele><time>2026-05-04T08:28:15Z</time></trkpt><trkpt lat="42.49159968791054" lon="8.837579716526852"><ele>451.0</ele><time>2026-05-04T08:28:18Z</time></trkpt><trkpt lat="42.49167515465894" lon="8.837655369202295"><ele>449.66666666666663</ele><time>2026-05-04T08:28:21Z</time></trkpt><trkpt lat="42.491729788965166" lon="8.837726736287488"><ele>448.3333333333333</ele><time>2026-05-04T08:28:23Z</time></trkpt><trkpt lat="42.49178320113104" lon="8.837819739076757"><ele>447.0</ele><time>2026-05-04T08:28:25Z</time></trkpt><trkpt lat="42.49185567599883" lon="8.83796799876493"><ele>446.8</ele><time>2026-05-04T08:28:27Z</time></trkpt><trkpt lat="42.491937421899635" lon="8.838097791458718"><ele>446.6</ele><time>2026-05-04T08:28:29Z</time></trkpt><trkpt lat="42.491998937723764" lon="8.838202810990579"><ele>446.40000000000003</ele><time>2026-05-04T08:28:31Z</time></trkpt><trkpt lat="42.49206826423244" lon="8.838281061392385"><ele>446.20000000000005</ele><time>2026-05-04T08:28:33Z</time></trkpt><trkpt lat="42.49212742209668" lon="8.838417613655771"><ele>446.0</ele><time>2026-05-04T08:28:35Z</time></trkpt><trkpt lat="42.49219300594264" lon="8.838479023956959"><ele>441.20000000000005</ele><time>2026-05-04T08:28:37Z</time></trkpt><trkpt lat="42.492285753522495" lon="8.8385499448941"><ele>436.40000000000003</ele><time>2026-05-04T08:28:39Z</time></trkpt><trkpt lat="42.492360243923805" lon="8.838609789962277"><ele>431.6</ele><time>2026-05-04T08:28:41Z</time></trkpt><trkpt lat="42.492431266174215" lon="8.838612932899176"><ele>426.8</ele><time>2026-05-04T08:28:43Z</time></trkpt><trkpt lat="42.49251482929125" lon="8.838546976652623"><ele>422.0</ele><time>2026-05-04T08:28:45Z</time></trkpt><trkpt lat="42.492612542872465" lon="8.838533445611759"><ele>421.99999999999994</ele><time>2026-05-04T08:28:47Z</time></trkpt><trkpt lat="42.49268441881034" lon="8.838586090176475"><ele>422.0</ele><time>2026-05-04T08:28:49Z</time></trkpt><trkpt lat="42.49272001385294" lon="8.838703694550325"><ele>422.0</ele><time>2026-05-04T08:28:51Z</time></trkpt><trkpt lat="42.49275639973223" lon="8.838778066373388"><ele>422.0</ele><time>2026-05-04T08:28:53Z</time></trkpt><trkpt lat="42.49281346432319" lon="8.83886770166755"><ele>421.99999999999994</ele><time>2026-05-04T08:28:55Z</time></trkpt><trkpt lat="42.492880356461875" lon="8.838927559236621"><ele>422.0</ele><time>2026-05-04T08:28:57Z</time></trkpt><trkpt lat="42.49294880996618" lon="8.838989823286088"><ele>425.20000000000005</ele><time>2026-05-04T08:28:59Z</time></trkpt><trkpt lat="42.49304596155643" lon="8.839054587079955"><ele>428.4</ele><time>2026-05-04T08:29:01Z</time></trkpt><trkpt lat="42.4931160016966" lon="8.839092343371538"><ele>431.59999999999997</ele><time>2026-05-04T08:29:03Z</time></trkpt><trkpt lat="42.4932082808397" lon="8.8391197712653"><ele>434.79999999999995</ele><time>2026-05-04T08:29:05Z</time></trkpt><trkpt lat="42.49331591122207" lon="8.839128053170402"><ele>438.0</ele><time>2026-05-04T08:29:07Z</time></trkpt><trkpt lat="42.493411561448696" lon="8.839131745490986"><ele>438.0</ele><time>2026-05-04T08:29:09Z</time></trkpt><trkpt lat="42.493496492972405" lon="8.839089390544451"><ele>438.0</ele><time>2026-05-04T08:29:11Z</time></trkpt><trkpt lat="42.49356040842364" lon="8.839042472015548"><ele>438.0</ele><time>2026-05-04T08:29:13Z</time></trkpt><trkpt lat="42.493622701672635" lon="8.839064004669401"><ele>438.0</ele><time>2026-05-04T08:29:16Z</time></trkpt><trkpt lat="42.493633135358486" lon="8.839177405136942"><ele>438.0</ele><time>2026-05-04T08:29:19Z</time></trkpt><trkpt lat="42.49360189506366" lon="8.839288639598532"><ele>438.0</ele><time>2026-05-04T08:29:22Z</time></trkpt><trkpt lat="42.493572945125685" lon="8.839373335598982"><ele>436.79999999999995</ele><time>2026-05-04T08:29:24Z</time></trkpt><trkpt lat="42.4935089516881" lon="8.83947389293417"><ele>435.59999999999997</ele><time>2026-05-04T08:29:27Z</time></trkpt><trkpt lat="42.49346071997592" lon="8.839590997772461"><ele>434.40000000000003</ele><time>2026-05-04T08:29:29Z</time></trkpt><trkpt lat="42.49341615032572" lon="8.839677219052598"><ele>433.20000000000005</ele><time>2026-05-04T08:29:31Z</time></trkpt><trkpt lat="42.49334724389632" lon="8.83978065916944"><ele>432.0</ele><time>2026-05-04T08:29:33Z</time></trkpt><trkpt lat="42.49327857671807" lon="8.839882010463494"><ele>432.0</ele><time>2026-05-04T08:29:35Z</time></trkpt><trkpt lat="42.493218827147174" lon="8.839955048767049"><ele>432.0</ele><time>2026-05-04T08:29:37Z</time></trkpt><trkpt lat="42.49316898092103" lon="8.840059059251285"><ele>432.0</ele><time>2026-05-04T08:29:39Z</time></trkpt><trkpt lat="42.49311145638176" lon="8.840186109373155"><ele>432.0</ele><time>2026-05-04T08:29:41Z</time></trkpt><trkpt lat="42.493081404564826" lon="8.840264335484973"><ele>432.0</ele><time>2026-05-04T08:29:42Z</time></trkpt><trkpt lat="42.493033488191095" lon="8.84037649062764"><ele>432.0</ele><time>2026-05-04T08:29:44Z</time></trkpt><trkpt lat="42.493044732375864" lon="8.84049236874909"><ele>433.1666666666667</ele><time>2026-05-04T08:29:46Z</time></trkpt><trkpt lat="42.4930913863016" lon="8.840615258272758"><ele>434.33333333333337</ele><time>2026-05-04T08:29:48Z</time></trkpt><trkpt lat="42.4931278023828" lon="8.840717480094085"><ele>435.5</ele><time>2026-05-04T08:29:50Z</time></trkpt><trkpt lat="42.49313588179312" lon="8.84082164559589"><ele>436.6666666666667</ele><time>2026-05-04T08:29:52Z</time></trkpt><trkpt lat="42.49308468297154" lon="8.840909296030524"><ele>437.83333333333337</ele><time>2026-05-04T08:29:54Z</time></trkpt><trkpt lat="42.49298828384832" lon="8.840941118688914"><ele>439.0</ele><time>2026-05-04T08:29:56Z</time></trkpt><trkpt lat="42.492917259046116" lon="8.84097296280402"><ele>435.83333333333337</ele><time>2026-05-04T08:29:58Z</time></trkpt><trkpt lat="42.492849678188286" lon="8.841016723164373"><ele>432.6666666666667</ele><time>2026-05-04T08:30:00Z</time></trkpt><trkpt lat="42.49279109247023" lon="8.841083079378526"><ele>429.5</ele><time>2026-05-04T08:30:02Z</time></trkpt><trkpt lat="42.49273620365015" lon="8.841159299974668"><ele>426.33333333333337</ele><time>2026-05-04T08:30:04Z</time></trkpt><trkpt lat="42.49267808017514" lon="8.841220104219413"><ele>423.1666666666667</ele><time>2026-05-04T08:30:06Z</time></trkpt><trkpt lat="42.49262235794605" lon="8.841290929272736"><ele>420.0</ele><time>2026-05-04T08:30:08Z</time></trkpt><trkpt lat="42.492579113548594" lon="8.841383803682309"><ele>420.0</ele><time>2026-05-04T08:30:10Z</time></trkpt><trkpt lat="42.492541784062226" lon="8.841459613446844"><ele>420.0</ele><time>2026-05-04T08:30:12Z</time></trkpt><trkpt lat="42.49251881547213" lon="8.841544555107703"><ele>420.0</ele><time>2026-05-04T08:30:14Z</time></trkpt><trkpt lat="42.49247088836194" lon="8.84162785435834"><ele>420.0</ele><time>2026-05-04T08:30:17Z</time></trkpt><trkpt lat="42.492392388432044" lon="8.841693491860688"><ele>420.0</ele><time>2026-05-04T08:30:20Z</time></trkpt><trkpt lat="42.49231859925144" lon="8.841707161153103"><ele>420.0</ele><time>2026-05-04T08:30:22Z</time></trkpt><trkpt lat="42.49224770214153" lon="8.841722385251487"><ele>420.0</ele><time>2026-05-04T08:30:24Z</time></trkpt><trkpt lat="42.492180564581474" lon="8.841675493833252"><ele>420.0</ele><time>2026-05-04T08:30:27Z</time></trkpt><trkpt lat="42.49212021355158" lon="8.841609781575515"><ele>420.0</ele><time>2026-05-04T08:30:29Z</time></trkpt><trkpt lat="42.492048482252486" lon="8.841566312951787"><ele>420.0</ele><time>2026-05-04T08:30:31Z</time></trkpt><trkpt lat="42.49193602337126" lon="8.841600335872693"><ele>420.0</ele><time>2026-05-04T08:30:33Z</time></trkpt><trkpt lat="42.491836279518715" lon="8.84160417328882"><ele>420.0</ele><time>2026-05-04T08:30:35Z</time></trkpt><trkpt lat="42.491728750930456" lon="8.84160566501181"><ele>419.6666666666667</ele><time>2026-05-04T08:30:37Z</time></trkpt><trkpt lat="42.49165308383702" lon="8.841633506949425"><ele>419.33333333333337</ele><time>2026-05-04T08:30:39Z</time></trkpt><trkpt lat="42.49156731398371" lon="8.841653395166542"><ele>419.0</ele><time>2026-05-04T08:30:41Z</time></trkpt><trkpt lat="42.491492360552364" lon="8.841667280495459"><ele>418.6666666666667</ele><time>2026-05-04T08:30:43Z</time></trkpt><trkpt lat="42.49140425222374" lon="8.84171671269026"><ele>418.33333333333337</ele><time>2026-05-04T08:30:45Z</time></trkpt><trkpt lat="42.49131882383697" lon="8.841762331877208"><ele>418.0</ele><time>2026-05-04T08:30:47Z</time></trkpt><trkpt lat="42.49121458746768" lon="8.84186341568124"><ele>418.00000000000006</ele><time>2026-05-04T08:30:49Z</time></trkpt><trkpt lat="42.49115476839792" lon="8.841943230714111"><ele>418.0</ele><time>2026-05-04T08:30:50Z</time></trkpt><trkpt lat="42.491104872384014" lon="8.842008242084784"><ele>418.0</ele><time>2026-05-04T08:30:51Z</time></trkpt><trkpt lat="42.49104475735331" lon="8.842094337226918"><ele>418.0</ele><time>2026-05-04T08:32:10Z</time></trkpt><trkpt lat="42.490961513912254" lon="8.842208567713167"><ele>418.00000000000006</ele><time>2026-05-04T08:32:12Z</time></trkpt><trkpt lat="42.49088991410318" lon="8.84228368315591"><ele>418.0</ele><time>2026-05-04T08:32:32Z</time></trkpt><trkpt lat="42.490817952170396" lon="8.842401855832286"><ele>418.0</ele><time>2026-05-04T08:32:34Z</time></trkpt><trkpt lat="42.49080797919086" lon="8.842527539592227"><ele>418.0</ele><time>2026-05-04T08:32:36Z</time></trkpt><trkpt lat="42.490819471757" lon="8.84265398907839"><ele>418.0</ele><time>2026-05-04T08:32:38Z</time></trkpt><trkpt lat="42.49081002186733" lon="8.842807962044002"><ele>418.0</ele><time>2026-05-04T08:32:40Z</time></trkpt><trkpt lat="42.490802435138974" lon="8.84293101304099"><ele>418.0</ele><time>2026-05-04T08:32:42Z</time></trkpt><trkpt lat="42.49079502909074" lon="8.843031366623098"><ele>420.33333333333337</ele><time>2026-05-04T08:32:44Z</time></trkpt><trkpt lat="42.490796554809016" lon="8.843142035964892"><ele>422.6666666666667</ele><time>2026-05-04T08:32:47Z</time></trkpt><trkpt lat="42.490796319281635" lon="8.843235595629245"><ele>425.0</ele><time>2026-05-04T08:32:49Z</time></trkpt><trkpt lat="42.49079265032347" lon="8.843341218163118"><ele>427.33333333333337</ele><time>2026-05-04T08:32:51Z</time></trkpt><trkpt lat="42.49073793620458" lon="8.843440519598968"><ele>429.6666666666667</ele><time>2026-05-04T08:32:53Z</time></trkpt><trkpt lat="42.49070724622929" lon="8.843517774384834"><ele>432.0</ele><time>2026-05-04T08:32:55Z</time></trkpt><trkpt lat="42.490697147041445" lon="8.84362648830815"><ele>433.1666666666667</ele><time>2026-05-04T08:32:57Z</time></trkpt><trkpt lat="42.490691284668344" lon="8.84373037359848"><ele>434.33333333333337</ele><time>2026-05-04T08:32:59Z</time></trkpt><trkpt lat="42.4906230576394" lon="8.843820818794297"><ele>435.5</ele><time>2026-05-04T08:33:08Z</time></trkpt><trkpt lat="42.4905617019294" lon="8.843914838162872"><ele>436.6666666666667</ele><time>2026-05-04T08:33:10Z</time></trkpt><trkpt lat="42.49054369484126" lon="8.844007172463005"><ele>437.83333333333337</ele><time>2026-05-04T08:33:12Z</time></trkpt><trkpt lat="42.49052178537829" lon="8.844087791097014"><ele>439.0</ele><time>2026-05-04T08:33:15Z</time></trkpt><trkpt lat="42.49050467606675" lon="8.844184227644432"><ele>439.00000000000006</ele><time>2026-05-04T08:33:20Z</time></trkpt><trkpt lat="42.490475746633294" lon="8.844293852717348"><ele>439.0</ele><time>2026-05-04T08:33:23Z</time></trkpt><trkpt lat="42.49049101439222" lon="8.844412242184646"><ele>439.0</ele><time>2026-05-04T08:33:26Z</time></trkpt><trkpt lat="42.490509171107846" lon="8.844499549551859"><ele>439.0</ele><time>2026-05-04T08:33:28Z</time></trkpt><trkpt lat="42.49050497948627" lon="8.844620996829597"><ele>439.00000000000006</ele><time>2026-05-04T08:33:31Z</time></trkpt><trkpt lat="42.49053680808642" lon="8.844719262499186"><ele>439.0</ele><time>2026-05-04T08:33:33Z</time></trkpt><trkpt lat="42.4905289699741" lon="8.844814998028523"><ele>439.2857142857143</ele><time>2026-05-04T08:33:35Z</time></trkpt><trkpt lat="42.49052987929982" lon="8.844905798131988"><ele>439.57142857142856</ele><time>2026-05-04T08:33:39Z</time></trkpt><trkpt lat="42.49052864758765" lon="8.845000514530188"><ele>439.8571428571429</ele><time>2026-05-04T08:33:43Z</time></trkpt><trkpt lat="42.49057514267029" lon="8.845068186579269"><ele>440.1428571428571</ele><time>2026-05-04T08:34:17Z</time></trkpt><trkpt lat="42.49054915898792" lon="8.84515859113333"><ele>440.42857142857144</ele><time>2026-05-04T08:34:19Z</time></trkpt><trkpt lat="42.49052886792119" lon="8.845248765136922"><ele>440.7142857142857</ele><time>2026-05-04T08:34:21Z</time></trkpt><trkpt lat="42.490518726045096" lon="8.845348546582164"><ele>441.0</ele><time>2026-05-04T08:34:24Z</time></trkpt><trkpt lat="42.49051690040614" lon="8.845457207663753"><ele>440.1666666666667</ele><time>2026-05-04T08:34:27Z</time></trkpt><trkpt lat="42.49051746246233" lon="8.845551363745955"><ele>439.33333333333337</ele><time>2026-05-04T08:34:32Z</time></trkpt><trkpt lat="42.49050809421395" lon="8.845642600023519"><ele>438.5</ele><time>2026-05-04T08:34:35Z</time></trkpt><trkpt lat="42.490543083736966" lon="8.845715041744517"><ele>437.6666666666667</ele><time>2026-05-04T08:34:38Z</time></trkpt><trkpt lat="42.49056873970004" lon="8.845823836971151"><ele>436.83333333333337</ele><time>2026-05-04T08:34:43Z</time></trkpt><trkpt lat="42.49059029962895" lon="8.845957493251394"><ele>436.0</ele><time>2026-05-04T08:34:46Z</time></trkpt><trkpt lat="42.490610119346634" lon="8.84606349546791"><ele>435.57142857142856</ele><time>2026-05-04T08:34:49Z</time></trkpt><trkpt lat="42.490651557546556" lon="8.846142052399205"><ele>435.14285714285717</ele><time>2026-05-04T08:34:52Z</time></trkpt><trkpt lat="42.49068796177526" lon="8.846213496732412"><ele>434.71428571428567</ele><time>2026-05-04T08:34:54Z</time></trkpt><trkpt lat="42.49071790008508" lon="8.846311786469936"><ele>434.2857142857143</ele><time>2026-05-04T08:34:57Z</time></trkpt><trkpt lat="42.49072942203444" lon="8.846407770306804"><ele>433.85714285714283</ele><time>2026-05-04T08:35:06Z</time></trkpt><trkpt lat="42.490753264276094" lon="8.846501560240638"><ele>433.4285714285714</ele><time>2026-05-04T08:35:17Z</time></trkpt><trkpt lat="42.490760043903734" lon="8.84660845323736"><ele>433.0</ele><time>2026-05-04T08:35:21Z</time></trkpt><trkpt lat="42.490758486830124" lon="8.846708101609028"><ele>433.99999999999994</ele><time>2026-05-04T08:35:25Z</time></trkpt><trkpt lat="42.49074583468209" lon="8.846803517208555"><ele>435.0</ele><time>2026-05-04T08:35:28Z</time></trkpt><trkpt lat="42.490693744423325" lon="8.846882661195623"><ele>436.0</ele><time>2026-05-04T08:35:33Z</time></trkpt><trkpt lat="42.49063374526888" lon="8.846910612755513"><ele>437.0</ele><time>2026-05-04T08:35:38Z</time></trkpt><trkpt lat="42.49056136252331" lon="8.846918634629278"><ele>438.0</ele><time>2026-05-04T08:35:49Z</time></trkpt><trkpt lat="42.49050962177433" lon="8.846969361724728"><ele>438.99999999999994</ele><time>2026-05-04T08:36:11Z</time></trkpt><trkpt lat="42.490444161577805" lon="8.846979904909533"><ele>440.0</ele><time>2026-05-04T08:36:17Z</time></trkpt><trkpt lat="42.49037952456952" lon="8.847002930164852"><ele>435.8</ele><time>2026-05-04T08:36:23Z</time></trkpt><trkpt lat="42.49028334467655" lon="8.84702370107601"><ele>431.6</ele><time>2026-05-04T08:36:34Z</time></trkpt><trkpt lat="42.49021832158001" lon="8.847079685779946"><ele>427.4</ele><time>2026-05-04T08:36:38Z</time></trkpt><trkpt lat="42.490123028139095" lon="8.84716273878121"><ele>423.2</ele><time>2026-05-04T08:36:41Z</time></trkpt><trkpt lat="42.490059775214" lon="8.847224756900445"><ele>419.0</ele><time>2026-05-04T08:36:43Z</time></trkpt><trkpt lat="42.489979319716895" lon="8.847312214716593"><ele>418.99999999999994</ele><time>2026-05-04T08:36:45Z</time></trkpt><trkpt lat="42.48991961633292" lon="8.847400617168761"><ele>419.0</ele><time>2026-05-04T08:36:47Z</time></trkpt><trkpt lat="42.48988798487" lon="8.847479394628959"><ele>419.0</ele><time>2026-05-04T08:36:50Z</time></trkpt><trkpt lat="42.48983330088188" lon="8.847555201633888"><ele>419.0</ele><time>2026-05-04T08:36:53Z</time></trkpt><trkpt lat="42.48976355842627" lon="8.84759197867114"><ele>418.99999999999994</ele><time>2026-05-04T08:36:56Z</time></trkpt><trkpt lat="42.489698777381676" lon="8.84760960199262"><ele>419.0</ele><time>2026-05-04T08:36:59Z</time></trkpt><trkpt lat="42.48962000755081" lon="8.84762307253728"><ele>419.85714285714283</ele><time>2026-05-04T08:37:02Z</time></trkpt><trkpt lat="42.48955062108658" lon="8.847617050453348"><ele>420.7142857142857</ele><time>2026-05-04T08:37:05Z</time></trkpt><trkpt lat="42.48947654755237" lon="8.847617861722716"><ele>421.57142857142856</ele><time>2026-05-04T08:37:08Z</time></trkpt><trkpt lat="42.489409708466205" lon="8.847622869491838"><ele>422.42857142857144</ele><time>2026-05-04T08:37:10Z</time></trkpt><trkpt lat="42.48934282141176" lon="8.847605150004856"><ele>423.2857142857143</ele><time>2026-05-04T08:37:12Z</time></trkpt><trkpt lat="42.48926744831302" lon="8.847600917005675"><ele>424.1428571428571</ele><time>2026-05-04T08:37:14Z</time></trkpt><trkpt lat="42.48919247534811" lon="8.847611697717946"><ele>425.0</ele><time>2026-05-04T08:37:16Z</time></trkpt><trkpt lat="42.489092344595576" lon="8.847654144540142"><ele>424.99999999999994</ele><time>2026-05-04T08:37:18Z</time></trkpt><trkpt lat="42.48901130227698" lon="8.847701332900543"><ele>425.0</ele><time>2026-05-04T08:37:20Z</time></trkpt><trkpt lat="42.4889499583094" lon="8.847760251032836"><ele>425.0</ele><time>2026-05-04T08:37:22Z</time></trkpt><trkpt lat="42.48886972737755" lon="8.847793955413977"><ele>425.0</ele><time>2026-05-04T08:37:24Z</time></trkpt><trkpt lat="42.488785371814906" lon="8.847820187011695"><ele>424.99999999999994</ele><time>2026-05-04T08:37:26Z</time></trkpt><trkpt lat="42.48871671450593" lon="8.847852495976609"><ele>425.0</ele><time>2026-05-04T08:37:29Z</time></trkpt><trkpt lat="42.48865254823929" lon="8.84788945878636"><ele>422.2857142857143</ele><time>2026-05-04T08:37:32Z</time></trkpt><trkpt lat="42.488590581830614" lon="8.847917004943486"><ele>419.57142857142856</ele><time>2026-05-04T08:37:37Z</time></trkpt><trkpt lat="42.48851470047487" lon="8.847962255001594"><ele>416.8571428571429</ele><time>2026-05-04T08:37:43Z</time></trkpt><trkpt lat="42.48846208594331" lon="8.848024587975424"><ele>414.1428571428571</ele><time>2026-05-04T08:37:47Z</time></trkpt><trkpt lat="42.48838889690864" lon="8.848029633958934"><ele>411.42857142857144</ele><time>2026-05-04T08:37:51Z</time></trkpt><trkpt lat="42.488335770047165" lon="8.848097272357112"><ele>408.7142857142857</ele><time>2026-05-04T08:37:53Z</time></trkpt><trkpt lat="42.48830093623926" lon="8.84820244777696"><ele>406.0</ele><time>2026-05-04T08:37:56Z</time></trkpt><trkpt lat="42.488246811821966" lon="8.848254192543926"><ele>406.00000000000006</ele><time>2026-05-04T08:38:01Z</time></trkpt><trkpt lat="42.48818978512475" lon="8.848291112724493"><ele>406.0</ele><time>2026-05-04T08:38:05Z</time></trkpt><trkpt lat="42.488122198503774" lon="8.84828259808967"><ele>406.0</ele><time>2026-05-04T08:38:08Z</time></trkpt><trkpt lat="42.48804636043721" lon="8.84826912312506"><ele>406.0</ele><time>2026-05-04T08:38:11Z</time></trkpt><trkpt lat="42.48795738472176" lon="8.848306880507042"><ele>406.00000000000006</ele><time>2026-05-04T08:38:14Z</time></trkpt><trkpt lat="42.48787846769327" lon="8.84836078302226"><ele>406.0</ele><time>2026-05-04T08:38:17Z</time></trkpt><trkpt lat="42.48778868555436" lon="8.848385561510389"><ele>403.83333333333337</ele><time>2026-05-04T08:38:20Z</time></trkpt><trkpt lat="42.48772695598357" lon="8.848404808953559"><ele>401.6666666666667</ele><time>2026-05-04T08:38:22Z</time></trkpt><trkpt lat="42.48765030184309" lon="8.848411501872567"><ele>399.5</ele><time>2026-05-04T08:38:24Z</time></trkpt><trkpt lat="42.48758944846542" lon="8.848481448295294"><ele>397.33333333333337</ele><time>2026-05-04T08:38:26Z</time></trkpt><trkpt lat="42.48751013469488" lon="8.848566451581968"><ele>395.1666666666667</ele><time>2026-05-04T08:38:29Z</time></trkpt><trkpt lat="42.487457230597926" lon="8.848613502069755"><ele>393.0</ele><time>2026-05-04T08:38:31Z</time></trkpt><trkpt lat="42.48741702769454" lon="8.8486951321194"><ele>393.0</ele><time>2026-05-04T08:38:39Z</time></trkpt><trkpt lat="42.48740652325346" lon="8.848781681619068"><ele>393.0</ele><time>2026-05-04T08:38:42Z</time></trkpt><trkpt lat="42.487318947381695" lon="8.848720020559531"><ele>393.0</ele><time>2026-05-04T08:38:50Z</time></trkpt><trkpt lat="42.48738096320584" lon="8.848704382193315"><ele>393.0</ele><time>2026-05-04T08:39:15Z</time></trkpt><trkpt lat="42.48734033625869" lon="8.848591062874634"><ele>393.0</ele><time>2026-05-04T08:39:19Z</time></trkpt><trkpt lat="42.487265754792304" lon="8.84851055288737"><ele>393.0</ele><time>2026-05-04T08:39:21Z</time></trkpt><trkpt lat="42.48722280736576" lon="8.848438026747992"><ele>392.4</ele><time>2026-05-04T08:39:23Z</time></trkpt><trkpt lat="42.48716070006998" lon="8.848322993057455"><ele>391.79999999999995</ele><time>2026-05-04T08:39:27Z</time></trkpt><trkpt lat="42.48710978174481" lon="8.848261224140478"><ele>391.2</ele><time>2026-05-04T08:39:28Z</time></trkpt><trkpt lat="42.487029394099544" lon="8.848144527425527"><ele>390.6</ele><time>2026-05-04T08:39:30Z</time></trkpt><trkpt lat="42.486961034395314" lon="8.848074626222768"><ele>390.0</ele><time>2026-05-04T08:39:32Z</time></trkpt><trkpt lat="42.48688954033322" lon="8.848001805762793"><ele>390.0</ele><time>2026-05-04T08:39:34Z</time></trkpt><trkpt lat="42.48682835595292" lon="8.847938922802788"><ele>390.0</ele><time>2026-05-04T08:39:36Z</time></trkpt><trkpt lat="42.48676754146698" lon="8.84788459307263"><ele>390.0</ele><time>2026-05-04T08:39:38Z</time></trkpt><trkpt lat="42.48669813425307" lon="8.847844422792846"><ele>390.0</ele><time>2026-05-04T08:39:40Z</time></trkpt><trkpt lat="42.48661575206959" lon="8.84783928246978"><ele>390.0</ele><time>2026-05-04T08:39:43Z</time></trkpt><trkpt lat="42.48651788244205" lon="8.847813486779701"><ele>390.0</ele><time>2026-05-04T08:39:46Z</time></trkpt><trkpt lat="42.486439784192" lon="8.847814952171676"><ele>390.0</ele><time>2026-05-04T08:39:48Z</time></trkpt><trkpt lat="42.48637228274487" lon="8.847815568477948"><ele>390.0</ele><time>2026-05-04T08:39:50Z</time></trkpt><trkpt lat="42.48628894037356" lon="8.847786485864518"><ele>390.0</ele><time>2026-05-04T08:39:52Z</time></trkpt><trkpt lat="42.486197557785296" lon="8.847780112494966"><ele>390.0</ele><time>2026-05-04T08:39:54Z</time></trkpt><trkpt lat="42.486108257230235" lon="8.847694798877598"><ele>390.0</ele><time>2026-05-04T08:39:56Z</time></trkpt><trkpt lat="42.48605917599895" lon="8.847638529787845"><ele>390.0</ele><time>2026-05-04T08:39:58Z</time></trkpt><trkpt lat="42.486005543442865" lon="8.847550971384159"><ele>389.4</ele><time>2026-05-04T08:40:00Z</time></trkpt><trkpt lat="42.4859475314643" lon="8.847439907008397"><ele>388.8</ele><time>2026-05-04T08:40:02Z</time></trkpt><trkpt lat="42.485858014520055" lon="8.847360642109845"><ele>388.20000000000005</ele><time>2026-05-04T08:40:04Z</time></trkpt><trkpt lat="42.485787890681685" lon="8.847268143294906"><ele>387.6</ele><time>2026-05-04T08:40:06Z</time></trkpt><trkpt lat="42.48572008214709" lon="8.847209002087947"><ele>387.0</ele><time>2026-05-04T08:40:08Z</time></trkpt><trkpt lat="42.48563812607865" lon="8.847096624210105"><ele>387.0</ele><time>2026-05-04T08:40:10Z</time></trkpt><trkpt lat="42.4855319648311" lon="8.84703542561609"><ele>387.0</ele><time>2026-05-04T08:40:12Z</time></trkpt><trkpt lat="42.48547419778065" lon="8.846992791161767"><ele>387.0</ele><time>2026-05-04T08:40:13Z</time></trkpt><trkpt lat="42.485414829935166" lon="8.846951983628097"><ele>387.0</ele><time>2026-05-04T08:40:14Z</time></trkpt><trkpt lat="42.48530649425955" lon="8.846879986406845"><ele>387.0</ele><time>2026-05-04T08:40:16Z</time></trkpt><trkpt lat="42.485250275658515" lon="8.846821426800874"><ele>387.0</ele><time>2026-05-04T08:40:17Z</time></trkpt><trkpt lat="42.485129034313694" lon="8.846736281126995"><ele>385.6666666666667</ele><time>2026-05-04T08:40:19Z</time></trkpt><trkpt lat="42.4850350696818" lon="8.84672499229427"><ele>384.3333333333333</ele><time>2026-05-04T08:40:21Z</time></trkpt><trkpt lat="42.48493869268923" lon="8.846713354170237"><ele>383.0</ele><time>2026-05-04T08:40:24Z</time></trkpt><trkpt lat="42.48485853043339" lon="8.846663882180708"><ele>381.66666666666663</ele><time>2026-05-04T08:40:26Z</time></trkpt><trkpt lat="42.4848040791787" lon="8.846614388014821"><ele>380.3333333333333</ele><time>2026-05-04T08:40:27Z</time></trkpt><trkpt lat="42.48474832984648" lon="8.846572591812293"><ele>379.0</ele><time>2026-05-04T08:40:28Z</time></trkpt><trkpt lat="42.484644311423985" lon="8.846546508802216"><ele>379.0</ele><time>2026-05-04T08:40:30Z</time></trkpt><trkpt lat="42.48457325830393" lon="8.846535005488525"><ele>379.0</ele><time>2026-05-04T08:40:31Z</time></trkpt><trkpt lat="42.484506322290905" lon="8.8465143218824"><ele>379.0</ele><time>2026-05-04T08:40:32Z</time></trkpt><trkpt lat="42.484429035489946" lon="8.846442075355881"><ele>379.0</ele><time>2026-05-04T08:40:34Z</time></trkpt><trkpt lat="42.48431999578139" lon="8.846389400423721"><ele>379.0</ele><time>2026-05-04T08:40:37Z</time></trkpt><trkpt lat="42.484249490442465" lon="8.846406633682967"><ele>379.0</ele><time>2026-05-04T08:40:39Z</time></trkpt><trkpt lat="42.48414326974051" lon="8.846432497908266"><ele>379.0</ele><time>2026-05-04T08:40:42Z</time></trkpt><trkpt lat="42.48408174737474" lon="8.846451806974938"><ele>379.0</ele><time>2026-05-04T08:40:43Z</time></trkpt><trkpt lat="42.48397656298673" lon="8.846398957449802"><ele>379.0</ele><time>2026-05-04T08:40:45Z</time></trkpt><trkpt lat="42.483887243158094" lon="8.846380968339549"><ele>379.0</ele><time>2026-05-04T08:40:47Z</time></trkpt><trkpt lat="42.48379661612662" lon="8.846390633365793"><ele>379.0</ele><time>2026-05-04T08:40:51Z</time></trkpt><trkpt lat="42.4836952358429" lon="8.846454966772328"><ele>378.66666666666663</ele><time>2026-05-04T08:40:53Z</time></trkpt><trkpt lat="42.48364048096833" lon="8.846518600848006"><ele>378.3333333333333</ele><time>2026-05-04T08:40:55Z</time></trkpt><trkpt lat="42.483559547327395" lon="8.846612209629715"><ele>378.0</ele><time>2026-05-04T08:40:58Z</time></trkpt><trkpt lat="42.48351529418779" lon="8.846699084612238"><ele>377.6666666666667</ele><time>2026-05-04T08:41:43Z</time></trkpt><trkpt lat="42.483502510542955" lon="8.846803712559797"><ele>377.33333333333337</ele><time>2026-05-04T08:42:11Z</time></trkpt><trkpt lat="42.48353863511092" lon="8.84688943070479"><ele>377.0</ele><time>2026-05-04T08:45:40Z</time></trkpt><trkpt lat="42.48350950541881" lon="8.846804428049277"><ele>376.99999999999994</ele><time>2026-05-04T08:45:49.999Z</time></trkpt><trkpt lat="42.48348342946766" lon="8.846711390629759"><ele>377.0</ele><time>2026-05-04T08:46:26Z</time></trkpt><trkpt lat="42.48354243089539" lon="8.84667881670019"><ele>377.0</ele><time>2026-05-04T08:46:44Z</time></trkpt><trkpt lat="42.483499678098106" lon="8.846763526443025"><ele>377.0</ele><time>2026-05-04T08:48:01Z</time></trkpt><trkpt lat="42.483480193702505" lon="8.846850337069965"><ele>377.0</ele><time>2026-05-04T08:48:04Z</time></trkpt><trkpt lat="42.483500324596356" lon="8.846932266693807"><ele>376.99999999999994</ele><time>2026-05-04T08:48:15Z</time></trkpt><trkpt lat="42.48348908620446" lon="8.847030727602975"><ele>377.0</ele><time>2026-05-04T08:49:31Z</time></trkpt><trkpt lat="42.48350790683589" lon="8.846941493564879"><ele>378.71428571428567</ele><time>2026-05-04T08:50:21Z</time></trkpt><trkpt lat="42.48349092984792" lon="8.84707164816408"><ele>380.42857142857144</ele><time>2026-05-04T08:51:06Z</time></trkpt><trkpt lat="42.483428362204116" lon="8.847090881994507"><ele>382.1428571428571</ele><time>2026-05-04T08:51:39.001Z</time></trkpt><trkpt lat="42.48336067873224" lon="8.84708122263823"><ele>383.85714285714283</ele><time>2026-05-04T08:51:55.001Z</time></trkpt><trkpt lat="42.48329595410568" lon="8.847046409841408"><ele>385.57142857142856</ele><time>2026-05-04T08:51:57.001Z</time></trkpt><trkpt lat="42.483230213768664" lon="8.847036726454728"><ele>387.2857142857143</ele><time>2026-05-04T08:52:02.001Z</time></trkpt><trkpt lat="42.48316399572942" lon="8.847038617647764"><ele>389.0</ele><time>2026-05-04T08:52:31Z</time></trkpt><trkpt lat="42.48310082462181" lon="8.847038306618233"><ele>389.0</ele><time>2026-05-04T08:52:34Z</time></trkpt><trkpt lat="42.48302693664112" lon="8.84704367034808"><ele>389.0</ele><time>2026-05-04T08:52:37Z</time></trkpt><trkpt lat="42.48295930874511" lon="8.846980999823192"><ele>389.0</ele><time>2026-05-04T08:52:41Z</time></trkpt><trkpt lat="42.482911940447366" lon="8.846903563159664"><ele>389.0</ele><time>2026-05-04T08:52:45Z</time></trkpt><trkpt lat="42.48284616083507" lon="8.846858448731517"><ele>389.0</ele><time>2026-05-04T08:52:48Z</time></trkpt><trkpt lat="42.48277510580807" lon="8.846851786427493"><ele>389.0</ele><time>2026-05-04T08:52:51Z</time></trkpt><trkpt lat="42.482720664249904" lon="8.846807180986206"><ele>389.0</ele><time>2026-05-04T08:53:05Z</time></trkpt><trkpt lat="42.482643164633714" lon="8.84683563683108"><ele>388.66666666666663</ele><time>2026-05-04T08:53:08Z</time></trkpt><trkpt lat="42.48254763674376" lon="8.846801781942519"><ele>388.3333333333333</ele><time>2026-05-04T08:53:11Z</time></trkpt><trkpt lat="42.482500578949775" lon="8.846743857153545"><ele>388.0</ele><time>2026-05-04T08:53:13Z</time></trkpt><trkpt lat="42.482391645321854" lon="8.846725949807755"><ele>387.66666666666663</ele><time>2026-05-04T08:53:15Z</time></trkpt><trkpt lat="42.48230122561008" lon="8.846764478986458"><ele>387.3333333333333</ele><time>2026-05-04T08:53:17Z</time></trkpt><trkpt lat="42.48224634900555" lon="8.846814802880818"><ele>387.0</ele><time>2026-05-04T08:53:19Z</time></trkpt><trkpt lat="42.48218340606108" lon="8.846863583083673"><ele>388.5</ele><time>2026-05-04T08:53:21Z</time></trkpt><trkpt lat="42.482107780157605" lon="8.846893336883799"><ele>390.0</ele><time>2026-05-04T08:53:23Z</time></trkpt><trkpt lat="42.482039632248586" lon="8.846822400316556"><ele>391.5</ele><time>2026-05-04T08:53:25Z</time></trkpt><trkpt lat="42.48195405409504" lon="8.846832094169722"><ele>393.0</ele><time>2026-05-04T08:53:28Z</time></trkpt><trkpt lat="42.48188632572603" lon="8.84676198009169"><ele>394.5</ele><time>2026-05-04T08:53:30Z</time></trkpt><trkpt lat="42.481834671774166" lon="8.84671025117932"><ele>396.0</ele><time>2026-05-04T08:53:31Z</time></trkpt><trkpt lat="42.48175722901891" lon="8.846649639786717"><ele>396.0</ele><time>2026-05-04T08:53:33Z</time></trkpt><trkpt lat="42.48167552531779" lon="8.84657569303566"><ele>396.0</ele><time>2026-05-04T08:53:35Z</time></trkpt><trkpt lat="42.481603063424956" lon="8.846512309879545"><ele>396.0</ele><time>2026-05-04T08:53:37Z</time></trkpt><trkpt lat="42.48153362272783" lon="8.84645903905699"><ele>396.0</ele><time>2026-05-04T08:53:39Z</time></trkpt><trkpt lat="42.48143945307157" lon="8.846406388041402"><ele>396.0</ele><time>2026-05-04T08:53:41Z</time></trkpt><trkpt lat="42.48135133380194" lon="8.846379428413039"><ele>398.1666666666667</ele><time>2026-05-04T08:53:43Z</time></trkpt><trkpt lat="42.48125860065537" lon="8.846391208313138"><ele>400.33333333333337</ele><time>2026-05-04T08:53:45Z</time></trkpt><trkpt lat="42.48115190607492" lon="8.846416456618815"><ele>402.5</ele><time>2026-05-04T08:53:47Z</time></trkpt><trkpt lat="42.48109089083361" lon="8.84639340176049"><ele>404.6666666666667</ele><time>2026-05-04T08:53:48Z</time></trkpt><trkpt lat="42.481020344025424" lon="8.84636658542968"><ele>406.83333333333337</ele><time>2026-05-04T08:53:49Z</time></trkpt><trkpt lat="42.48095650479492" lon="8.846340462341988"><ele>409.0</ele><time>2026-05-04T08:53:50Z</time></trkpt><trkpt lat="42.480869596631024" lon="8.84633173813677"><ele>409.0</ele><time>2026-05-04T08:53:52Z</time></trkpt><trkpt lat="42.48094802137586" lon="8.8463604530265"><ele>409.0</ele><time>2026-05-04T08:56:07Z</time></trkpt><trkpt lat="42.48103050108494" lon="8.846374807284182"><ele>409.0</ele><time>2026-05-04T08:56:09Z</time></trkpt><trkpt lat="42.48115414295265" lon="8.846424901955505"><ele>409.0</ele><time>2026-05-04T08:56:11Z</time></trkpt><trkpt lat="42.48125922103832" lon="8.846443362286426"><ele>409.0</ele><time>2026-05-04T08:56:13Z</time></trkpt><trkpt lat="42.48135290132059" lon="8.846406242160326"><ele>406.83333333333337</ele><time>2026-05-04T08:56:15Z</time></trkpt><trkpt lat="42.481428950743435" lon="8.84642057421724"><ele>404.6666666666667</ele><time>2026-05-04T08:56:17Z</time></trkpt><trkpt lat="42.4815295620842" lon="8.846470017883641"><ele>402.5</ele><time>2026-05-04T08:56:19Z</time></trkpt><trkpt lat="42.48162191403408" lon="8.846533383584507"><ele>400.33333333333337</ele><time>2026-05-04T08:56:21Z</time></trkpt><trkpt lat="42.481682664660916" lon="8.846587538404945"><ele>398.1666666666667</ele><time>2026-05-04T08:56:23Z</time></trkpt><trkpt lat="42.481752466186116" lon="8.846662793130351"><ele>396.0</ele><time>2026-05-04T08:56:26Z</time></trkpt><trkpt lat="42.48182971103364" lon="8.846749839115839"><ele>396.6666666666667</ele><time>2026-05-04T08:56:29Z</time></trkpt><trkpt lat="42.481897303416424" lon="8.84680693274021"><ele>397.33333333333337</ele><time>2026-05-04T08:56:31Z</time></trkpt><trkpt lat="42.48197513645228" lon="8.84687029841837"><ele>398.0</ele><time>2026-05-04T08:56:34Z</time></trkpt><trkpt lat="42.48206267387198" lon="8.846857636594521"><ele>398.6666666666667</ele><time>2026-05-04T08:56:37Z</time></trkpt><trkpt lat="42.48213886477287" lon="8.846898590010872"><ele>399.33333333333337</ele><time>2026-05-04T08:56:40Z</time></trkpt><trkpt lat="42.482202660196855" lon="8.846852129656032"><ele>400.0</ele><time>2026-05-04T08:56:44Z</time></trkpt><trkpt lat="42.482315814534616" lon="8.846798574396272"><ele>400.00000000000006</ele><time>2026-05-04T08:56:47Z</time></trkpt><trkpt lat="42.48238833887121" lon="8.84675967273134"><ele>400.0</ele><time>2026-05-04T08:56:49Z</time></trkpt><trkpt lat="42.4824757688764" lon="8.846797301860093"><ele>400.0</ele><time>2026-05-04T08:56:51Z</time></trkpt><trkpt lat="42.48253511775647" lon="8.846842577685939"><ele>400.0</ele><time>2026-05-04T08:56:53Z</time></trkpt><trkpt lat="42.48262093151385" lon="8.846884211025923"><ele>400.00000000000006</ele><time>2026-05-04T08:56:55Z</time></trkpt><trkpt lat="42.48268946526681" lon="8.846891356948646"><ele>400.0</ele><time>2026-05-04T08:56:57Z</time></trkpt><trkpt lat="42.48276820598014" lon="8.846868183697689"><ele>400.00000000000006</ele><time>2026-05-04T08:57:00Z</time></trkpt><trkpt lat="42.482848002917976" lon="8.846917562810175"><ele>400.0</ele><time>2026-05-04T08:57:05Z</time></trkpt><trkpt lat="42.48291434853817" lon="8.846911700887091"><ele>400.0</ele><time>2026-05-04T08:57:08Z</time></trkpt><trkpt lat="42.482967409271495" lon="8.847013539254606"><ele>400.0</ele><time>2026-05-04T08:57:13Z</time></trkpt><trkpt lat="42.48303291139582" lon="8.847081372330173"><ele>400.00000000000006</ele><time>2026-05-04T08:57:16Z</time></trkpt><trkpt lat="42.483107603430746" lon="8.847073608436949"><ele>400.0</ele><time>2026-05-04T08:57:19Z</time></trkpt><trkpt lat="42.48316729668699" lon="8.847132023398"><ele>398.42857142857144</ele><time>2026-05-04T08:57:28Z</time></trkpt><trkpt lat="42.48323606470661" lon="8.847079980852742"><ele>396.8571428571429</ele><time>2026-05-04T08:57:38Z</time></trkpt><trkpt lat="42.48331727326" lon="8.847119334865102"><ele>395.28571428571433</ele><time>2026-05-04T08:57:43Z</time></trkpt><trkpt lat="42.48338785878317" lon="8.847118158638166"><ele>393.7142857142857</ele><time>2026-05-04T08:57:54Z</time></trkpt><trkpt lat="42.48345527570685" lon="8.84711302983534"><ele>392.1428571428571</ele><time>2026-05-04T08:58:14Z</time></trkpt><trkpt lat="42.483382454420585" lon="8.847097155079028"><ele>390.5714285714286</ele><time>2026-05-04T09:00:45Z</time></trkpt><trkpt lat="42.48344817412849" lon="8.847099381675328"><ele>389.0</ele><time>2026-05-04T09:03:55Z</time></trkpt><trkpt lat="42.48337329866853" lon="8.847096214947843"><ele>389.0</ele><time>2026-05-04T09:05:09Z</time></trkpt><trkpt lat="42.48331101541388" lon="8.847082165129725"><ele>389.0</ele><time>2026-05-04T09:05:31Z</time></trkpt><trkpt lat="42.483375273527365" lon="8.847143584554361"><ele>389.0</ele><time>2026-05-04T09:06:23Z</time></trkpt><trkpt lat="42.483345527012375" lon="8.84705633720154"><ele>389.0</ele><time>2026-05-04T09:08:07Z</time></trkpt><trkpt lat="42.48327879976295" lon="8.84706844029028"><ele>389.0</ele><time>2026-05-04T09:08:27Z</time></trkpt><trkpt lat="42.48321412543311" lon="8.847066658835585"><ele>389.0</ele><time>2026-05-04T09:09:03Z</time></trkpt><trkpt lat="42.483280647236874" lon="8.847085894624454"><ele>389.0</ele><time>2026-05-04T09:09:31Z</time></trkpt><trkpt lat="42.48336133383614" lon="8.847135471278268"><ele>389.0</ele><time>2026-05-04T09:09:36Z</time></trkpt><trkpt lat="42.48333291723412" lon="8.847058006055896"><ele>389.0</ele><time>2026-05-04T09:10:42Z</time></trkpt><trkpt lat="42.48326621406264" lon="8.847051171458896"><ele>389.0</ele><time>2026-05-04T09:10:55Z</time></trkpt><trkpt lat="42.48332616291116" lon="8.847129821266531"><ele>389.0</ele><time>2026-05-04T09:11:26Z</time></trkpt><trkpt lat="42.48339390100068" lon="8.847147500024755"><ele>389.0</ele><time>2026-05-04T09:11:28Z</time></trkpt><trkpt lat="42.483441970710906" lon="8.847074820174706"><ele>389.0</ele><time>2026-05-04T09:33:29Z</time></trkpt><trkpt lat="42.48337978064162" lon="8.847110956386125"><ele>389.0</ele><time>2026-05-04T09:35:04Z</time></trkpt><trkpt lat="42.48346814224823" lon="8.847122132037356"><ele>389.0</ele><time>2026-05-04T09:35:47Z</time></trkpt><trkpt lat="42.48353004961433" lon="8.847066690995035"><ele>389.0</ele><time>2026-05-04T09:38:20Z</time></trkpt><trkpt lat="42.483502377417054" lon="8.846987183635266"><ele>389.0</ele><time>2026-05-04T09:38:57Z</time></trkpt><trkpt lat="42.4835092427047" lon="8.846896082385577"><ele>389.0</ele><time>2026-05-04T09:39:43Z</time></trkpt><trkpt lat="42.48349750337865" lon="8.846800094533748"><ele>389.0</ele><time>2026-05-04T09:40:01Z</time></trkpt><trkpt lat="42.483523523518095" lon="8.846693343613053"><ele>389.0</ele><time>2026-05-04T09:40:07Z</time></trkpt><trkpt lat="42.48357636657664" lon="8.846638548835308"><ele>389.0</ele><time>2026-05-04T09:40:10Z</time></trkpt><trkpt lat="42.483656792559124" lon="8.84659129689493"><ele>387.3333333333333</ele><time>2026-05-04T09:40:13Z</time></trkpt><trkpt lat="42.48372407852769" lon="8.846508197269367"><ele>385.66666666666663</ele><time>2026-05-04T09:40:16Z</time></trkpt><trkpt lat="42.48383396499773" lon="8.846467762656399"><ele>384.0</ele><time>2026-05-04T09:40:18Z</time></trkpt><trkpt lat="42.483896429475564" lon="8.846440117490666"><ele>382.3333333333333</ele><time>2026-05-04T09:40:20Z</time></trkpt><trkpt lat="42.483964014455715" lon="8.846426283089883"><ele>380.66666666666663</ele><time>2026-05-04T09:40:22Z</time></trkpt><trkpt lat="42.4840633591818" lon="8.84645086560865"><ele>379.0</ele><time>2026-05-04T09:40:24Z</time></trkpt><trkpt lat="42.48416191815633" lon="8.846460419040833"><ele>379.0</ele><time>2026-05-04T09:40:26Z</time></trkpt><trkpt lat="42.48426317369826" lon="8.846443572055419"><ele>379.0</ele><time>2026-05-04T09:40:28Z</time></trkpt><trkpt lat="42.484349964997" lon="8.846433508227163"><ele>379.0</ele><time>2026-05-04T09:40:33Z</time></trkpt><trkpt lat="42.4844379648767" lon="8.846479109101729"><ele>379.0</ele><time>2026-05-04T09:40:35Z</time></trkpt><trkpt lat="42.484521575221166" lon="8.846546196540663"><ele>379.0</ele><time>2026-05-04T09:40:37Z</time></trkpt><trkpt lat="42.484642684663626" lon="8.846597896061402"><ele>379.0</ele><time>2026-05-04T09:40:39Z</time></trkpt><trkpt lat="42.48471128558234" lon="8.846605904741308"><ele>379.0</ele><time>2026-05-04T09:40:40Z</time></trkpt><trkpt lat="42.484806181973035" lon="8.846636126060476"><ele>379.0</ele><time>2026-05-04T09:40:42Z</time></trkpt><trkpt lat="42.48488987308135" lon="8.846683862514382"><ele>379.0</ele><time>2026-05-04T09:40:44Z</time></trkpt><trkpt lat="42.48495786676157" lon="8.846734404683362"><ele>379.0</ele><time>2026-05-04T09:40:46Z</time></trkpt><trkpt lat="42.48503488534073" lon="8.846763391586649"><ele>379.0</ele><time>2026-05-04T09:40:48Z</time></trkpt><trkpt lat="42.48509334429149" lon="8.84679785352104"><ele>380.6</ele><time>2026-05-04T09:40:51Z</time></trkpt><trkpt lat="42.485201694111325" lon="8.846829366672127"><ele>382.2</ele><time>2026-05-04T09:40:53Z</time></trkpt><trkpt lat="42.48528605494248" lon="8.846876535600645"><ele>383.8</ele><time>2026-05-04T09:40:54Z</time></trkpt><trkpt lat="42.48537173719539" lon="8.84693841980354"><ele>385.40000000000003</ele><time>2026-05-04T09:40:56Z</time></trkpt><trkpt lat="42.48546191471368" lon="8.847013086541653"><ele>387.0</ele><time>2026-05-04T09:40:58Z</time></trkpt><trkpt lat="42.485563956176705" lon="8.847078214382591"><ele>387.0</ele><time>2026-05-04T09:41:00Z</time></trkpt><trkpt lat="42.48566033390468" lon="8.847121660291014"><ele>387.0</ele><time>2026-05-04T09:41:02Z</time></trkpt><trkpt lat="42.48572095030535" lon="8.847196622529726"><ele>387.0</ele><time>2026-05-04T09:41:04Z</time></trkpt><trkpt lat="42.48577442703621" lon="8.847295705161162"><ele>387.0</ele><time>2026-05-04T09:41:06Z</time></trkpt><trkpt lat="42.48584766119984" lon="8.84735143728999"><ele>387.0</ele><time>2026-05-04T09:41:08Z</time></trkpt><trkpt lat="42.485911930159034" lon="8.847443035379303"><ele>387.0</ele><time>2026-05-04T09:41:10Z</time></trkpt><trkpt lat="42.48599415701526" lon="8.84750803170404"><ele>387.0</ele><time>2026-05-04T09:41:12Z</time></trkpt><trkpt lat="42.48604854151422" lon="8.84756798637067"><ele>387.0</ele><time>2026-05-04T09:41:14Z</time></trkpt><trkpt lat="42.48606774024009" lon="8.847659092635212"><ele>387.0</ele><time>2026-05-04T09:41:16Z</time></trkpt><trkpt lat="42.48612573753506" lon="8.847737026337697"><ele>387.0</ele><time>2026-05-04T09:41:18Z</time></trkpt><trkpt lat="42.48617821298731" lon="8.847793026732683"><ele>387.0</ele><time>2026-05-04T09:41:19Z</time></trkpt><trkpt lat="42.4862652528536" lon="8.84785747993002"><ele>387.5</ele><time>2026-05-04T09:41:21Z</time></trkpt><trkpt lat="42.48634884499303" lon="8.847854808840486"><ele>388.0</ele><time>2026-05-04T09:41:23Z</time></trkpt><trkpt lat="42.48642221064753" lon="8.847860836698157"><ele>388.5</ele><time>2026-05-04T09:41:25Z</time></trkpt><trkpt lat="42.486513410226955" lon="8.847848691288151"><ele>389.0</ele><time>2026-05-04T09:41:27Z</time></trkpt><trkpt lat="42.48658609051375" lon="8.847849579618005"><ele>389.5</ele><time>2026-05-04T09:41:29Z</time></trkpt><trkpt lat="42.486648674855246" lon="8.847880317643465"><ele>390.0</ele><time>2026-05-04T09:41:31Z</time></trkpt><trkpt lat="42.486714880558665" lon="8.847877705881077"><ele>390.0</ele><time>2026-05-04T09:41:33Z</time></trkpt><trkpt lat="42.486779253963206" lon="8.847911085815246"><ele>390.0</ele><time>2026-05-04T09:41:36Z</time></trkpt><trkpt lat="42.48684546660486" lon="8.847963665519101"><ele>390.0</ele><time>2026-05-04T09:41:39Z</time></trkpt><trkpt lat="42.4869008986932" lon="8.848042851875359"><ele>390.0</ele><time>2026-05-04T09:41:42Z</time></trkpt><trkpt lat="42.48695687034285" lon="8.84809230369905"><ele>390.0</ele><time>2026-05-04T09:41:44Z</time></trkpt><trkpt lat="42.48702165578901" lon="8.848163943295608"><ele>390.0</ele><time>2026-05-04T09:41:47Z</time></trkpt><trkpt lat="42.48706603837436" lon="8.848231651737427"><ele>390.0</ele><time>2026-05-04T09:41:49Z</time></trkpt><trkpt lat="42.487101918032046" lon="8.848302505369148"><ele>390.5</ele><time>2026-05-04T09:41:51Z</time></trkpt><trkpt lat="42.487162654719754" lon="8.848394222685881"><ele>391.0</ele><time>2026-05-04T09:41:53Z</time></trkpt><trkpt lat="42.48719901592864" lon="8.848481957246802"><ele>391.5</ele><time>2026-05-04T09:41:56Z</time></trkpt><trkpt lat="42.48724304448578" lon="8.848576585968406"><ele>392.0</ele><time>2026-05-04T09:41:59Z</time></trkpt><trkpt lat="42.48730592449711" lon="8.848634003149474"><ele>392.5</ele><time>2026-05-04T09:42:01Z</time></trkpt><trkpt lat="42.487322892276794" lon="8.84873734689098"><ele>393.0</ele><time>2026-05-04T09:42:05Z</time></trkpt><trkpt lat="42.48736312383204" lon="8.848803022389328"><ele>393.00000000000006</ele><time>2026-05-04T09:42:19Z</time></trkpt><trkpt lat="42.487425346602045" lon="8.848818112903144"><ele>393.0</ele><time>2026-05-04T09:42:21Z</time></trkpt><trkpt lat="42.487443294176224" lon="8.848716798396445"><ele>393.0</ele><time>2026-05-04T09:42:54Z</time></trkpt><trkpt lat="42.48749008486514" lon="8.84865134301971"><ele>393.0</ele><time>2026-05-04T09:43:02Z</time></trkpt><trkpt lat="42.48755157889761" lon="8.848584356295078"><ele>393.0</ele><time>2026-05-04T09:43:05Z</time></trkpt><trkpt lat="42.487619677408404" lon="8.848527258004852"><ele>393.00000000000006</ele><time>2026-05-04T09:43:08Z</time></trkpt><trkpt lat="42.487677941129114" lon="8.848474476917925"><ele>393.0</ele><time>2026-05-04T09:43:11Z</time></trkpt><trkpt lat="42.48775708997958" lon="8.848448716373728"><ele>391.1666666666667</ele><time>2026-05-04T09:43:14Z</time></trkpt><trkpt lat="42.48784169062113" lon="8.848430846603259"><ele>389.3333333333333</ele><time>2026-05-04T09:43:17Z</time></trkpt><trkpt lat="42.48792847412873" lon="8.848399970836569"><ele>387.5</ele><time>2026-05-04T09:43:20Z</time></trkpt><trkpt lat="42.48799383256204" lon="8.848340490007278"><ele>385.66666666666663</ele><time>2026-05-04T09:43:22Z</time></trkpt><trkpt lat="42.48806526456586" lon="8.848317657128531"><ele>383.8333333333333</ele><time>2026-05-04T09:43:24Z</time></trkpt><trkpt lat="42.488153824562794" lon="8.848260438657556"><ele>382.0</ele><time>2026-05-04T09:43:27Z</time></trkpt><trkpt lat="42.488210460124066" lon="8.8483129418909"><ele>385.42857142857144</ele><time>2026-05-04T09:43:29Z</time></trkpt><trkpt lat="42.48826843291251" lon="8.848274651436256"><ele>388.85714285714283</ele><time>2026-05-04T09:44:03Z</time></trkpt><trkpt lat="42.48832831469426" lon="8.848185696198072"><ele>392.2857142857143</ele><time>2026-05-04T09:44:10Z</time></trkpt><trkpt lat="42.48836342907013" lon="8.848114653618342"><ele>395.7142857142857</ele><time>2026-05-04T09:44:13Z</time></trkpt><trkpt lat="42.488419258321734" lon="8.848040939761189"><ele>399.1428571428571</ele><time>2026-05-04T09:44:17Z</time></trkpt><trkpt lat="42.488499008040506" lon="8.848034402874958"><ele>402.57142857142856</ele><time>2026-05-04T09:44:26Z</time></trkpt><trkpt lat="42.488561264494784" lon="8.847996705173403"><ele>406.0</ele><time>2026-05-04T09:44:31Z</time></trkpt><trkpt lat="42.4886196664633" lon="8.847945381648776"><ele>406.00000000000006</ele><time>2026-05-04T09:44:36Z</time></trkpt><trkpt lat="42.48868683407529" lon="8.847875879116033"><ele>406.0</ele><time>2026-05-04T09:45:00Z</time></trkpt><trkpt lat="42.488757907966075" lon="8.847875809889834"><ele>406.0</ele><time>2026-05-04T09:45:04Z</time></trkpt><trkpt lat="42.48882055762388" lon="8.847850625606517"><ele>406.0</ele><time>2026-05-04T09:45:09Z</time></trkpt><trkpt lat="42.48889072605628" lon="8.847807288030024"><ele>406.00000000000006</ele><time>2026-05-04T09:45:12Z</time></trkpt><trkpt lat="42.4889550962529" lon="8.847772485340796"><ele>406.0</ele><time>2026-05-04T09:45:14Z</time></trkpt><trkpt lat="42.48902070766773" lon="8.847702466050947"><ele>405.83333333333337</ele><time>2026-05-04T09:45:17Z</time></trkpt><trkpt lat="42.48910609232332" lon="8.847661846674075"><ele>405.6666666666667</ele><time>2026-05-04T09:45:19Z</time></trkpt><trkpt lat="42.48919662517722" lon="8.847639035683631"><ele>405.5</ele><time>2026-05-04T09:45:21Z</time></trkpt><trkpt lat="42.48929617220238" lon="8.847624808720115"><ele>405.33333333333337</ele><time>2026-05-04T09:45:24Z</time></trkpt><trkpt lat="42.48936616313929" lon="8.847634900293373"><ele>405.1666666666667</ele><time>2026-05-04T09:45:26Z</time></trkpt><trkpt lat="42.48944994763073" lon="8.847666913827155"><ele>405.0</ele><time>2026-05-04T09:45:29Z</time></trkpt><trkpt lat="42.48953880135996" lon="8.847642218533453"><ele>406.99999999999994</ele><time>2026-05-04T09:45:32Z</time></trkpt><trkpt lat="42.489615396573896" lon="8.847645249021332"><ele>409.0</ele><time>2026-05-04T09:45:34Z</time></trkpt><trkpt lat="42.48969627658803" lon="8.847637921853032"><ele>411.0</ele><time>2026-05-04T09:45:37Z</time></trkpt><trkpt lat="42.48976006461223" lon="8.847616262557354"><ele>413.0</ele><time>2026-05-04T09:45:39Z</time></trkpt><trkpt lat="42.489823841958" lon="8.847581598758117"><ele>415.0</ele><time>2026-05-04T09:45:41Z</time></trkpt><trkpt lat="42.48988752844458" lon="8.847502041295368"><ele>416.99999999999994</ele><time>2026-05-04T09:45:44Z</time></trkpt><trkpt lat="42.48992637564206" lon="8.847425440323766"><ele>419.0</ele><time>2026-05-04T09:45:46Z</time></trkpt><trkpt lat="42.48996195125644" lon="8.847343640130672"><ele>418.99999999999994</ele><time>2026-05-04T09:45:48Z</time></trkpt><trkpt lat="42.49003450989596" lon="8.847267792066173"><ele>419.0</ele><time>2026-05-04T09:45:51Z</time></trkpt><trkpt lat="42.49011298959123" lon="8.847202957878388"><ele>419.0</ele><time>2026-05-04T09:45:53Z</time></trkpt><trkpt lat="42.49016774730907" lon="8.847143507135385"><ele>419.0</ele><time>2026-05-04T09:45:55Z</time></trkpt><trkpt lat="42.490223496396474" lon="8.847093328194672"><ele>418.99999999999994</ele><time>2026-05-04T09:45:57Z</time></trkpt><trkpt lat="42.49028486857655" lon="8.847057929171473"><ele>419.0</ele><time>2026-05-04T09:45:59Z</time></trkpt><trkpt lat="42.49036763023667" lon="8.847025113055201"><ele>422.49999999999994</ele><time>2026-05-04T09:46:02Z</time></trkpt><trkpt lat="42.49043533611671" lon="8.847039601136977"><ele>426.0</ele><time>2026-05-04T09:46:33Z</time></trkpt><trkpt lat="42.490499361500724" lon="8.847017377000778"><ele>429.5</ele><time>2026-05-04T09:46:52Z</time></trkpt><trkpt lat="42.49057023391113" lon="8.847012137218343"><ele>433.0</ele><time>2026-05-04T09:47:00Z</time></trkpt><trkpt lat="42.4906320852122" lon="8.84698041346301"><ele>436.49999999999994</ele><time>2026-05-04T09:47:22Z</time></trkpt><trkpt lat="42.4906962983262" lon="8.84691822298955"><ele>440.0</ele><time>2026-05-04T09:47:33Z</time></trkpt><trkpt lat="42.49080366280078" lon="8.846874026065727"><ele>438.99999999999994</ele><time>2026-05-04T09:47:58Z</time></trkpt><trkpt lat="42.490793918688674" lon="8.846777848218924"><ele>438.0</ele><time>2026-05-04T09:48:01Z</time></trkpt><trkpt lat="42.49079575399703" lon="8.846685765612907"><ele>437.0</ele><time>2026-05-04T09:48:05Z</time></trkpt><trkpt lat="42.49078592087513" lon="8.846586777811522"><ele>436.0</ele><time>2026-05-04T09:48:08Z</time></trkpt><trkpt lat="42.49078350967775" lon="8.846501465560015"><ele>435.0</ele><time>2026-05-04T09:48:16Z</time></trkpt><trkpt lat="42.490766315262185" lon="8.846413384347947"><ele>433.99999999999994</ele><time>2026-05-04T09:48:21Z</time></trkpt><trkpt lat="42.4907220783055" lon="8.846348032775806"><ele>433.0</ele><time>2026-05-04T09:48:30Z</time></trkpt><trkpt lat="42.4906941484978" lon="8.84624589116075"><ele>432.99999999999994</ele><time>2026-05-04T09:48:34Z</time></trkpt><trkpt lat="42.49066342078318" lon="8.846170748366303"><ele>433.0</ele><time>2026-05-04T09:48:37Z</time></trkpt><trkpt lat="42.4906369634371" lon="8.846093277559623"><ele>433.0</ele><time>2026-05-04T09:48:40Z</time></trkpt><trkpt lat="42.490609031420846" lon="8.846002752858011"><ele>433.0</ele><time>2026-05-04T09:48:44Z</time></trkpt><trkpt lat="42.490593599572286" lon="8.845917745814798"><ele>433.0</ele><time>2026-05-04T09:48:47Z</time></trkpt><trkpt lat="42.490594935342315" lon="8.845804091791642"><ele>432.99999999999994</ele><time>2026-05-04T09:48:51Z</time></trkpt><trkpt lat="42.49058183035377" lon="8.845715022404972"><ele>433.0</ele><time>2026-05-04T09:48:55Z</time></trkpt><trkpt lat="42.490529079708175" lon="8.845621451492864"><ele>433.50000000000006</ele><time>2026-05-04T09:49:00Z</time></trkpt><trkpt lat="42.4905303237831" lon="8.845530681846206"><ele>434.0</ele><time>2026-05-04T09:49:03Z</time></trkpt><trkpt lat="42.49053381492288" lon="8.845406853735664"><ele>434.5</ele><time>2026-05-04T09:49:07Z</time></trkpt><trkpt lat="42.49053217284122" lon="8.845312391963466"><ele>435.0</ele><time>2026-05-04T09:49:09Z</time></trkpt><trkpt lat="42.490545823136614" lon="8.84518176188017"><ele>435.50000000000006</ele><time>2026-05-04T09:49:12Z</time></trkpt><trkpt lat="42.49055307424087" lon="8.845096286033751"><ele>436.0</ele><time>2026-05-04T09:49:15Z</time></trkpt><trkpt lat="42.49058759967396" lon="8.845013712994835"><ele>436.83333333333337</ele><time>2026-05-04T09:51:03Z</time></trkpt><trkpt lat="42.49062775239324" lon="8.844942308561052"><ele>437.6666666666667</ele><time>2026-05-04T09:51:06Z</time></trkpt><trkpt lat="42.49072039055446" lon="8.844920812133099"><ele>438.5</ele><time>2026-05-04T09:51:08Z</time></trkpt><trkpt lat="42.49080137182838" lon="8.844863792840641"><ele>439.33333333333337</ele><time>2026-05-04T09:51:11Z</time></trkpt><trkpt lat="42.49088268943684" lon="8.844821861148047"><ele>440.1666666666667</ele><time>2026-05-04T09:51:14Z</time></trkpt><trkpt lat="42.4909527357439" lon="8.844807121486747"><ele>441.0</ele><time>2026-05-04T09:51:16Z</time></trkpt><trkpt lat="42.49102268664207" lon="8.844773058670729"><ele>441.0</ele><time>2026-05-04T09:51:18Z</time></trkpt><trkpt lat="42.491114942300634" lon="8.844739001104069"><ele>441.0</ele><time>2026-05-04T09:51:21Z</time></trkpt><trkpt lat="42.491192245655895" lon="8.844717822865507"><ele>441.0</ele><time>2026-05-04T09:51:23Z</time></trkpt><trkpt lat="42.49127976666252" lon="8.844671572796688"><ele>441.0</ele><time>2026-05-04T09:51:26Z</time></trkpt><trkpt lat="42.4913513241946" lon="8.844652853301469"><ele>441.0</ele><time>2026-05-04T09:51:29Z</time></trkpt><trkpt lat="42.491412158041676" lon="8.844608651033711"><ele>441.0</ele><time>2026-05-04T09:51:31Z</time></trkpt><trkpt lat="42.4914841789555" lon="8.844571686272683"><ele>442.6666666666667</ele><time>2026-05-04T09:51:34Z</time></trkpt><trkpt lat="42.4915572170151" lon="8.844554071704804"><ele>444.33333333333337</ele><time>2026-05-04T09:51:36Z</time></trkpt><trkpt lat="42.49162486981034" lon="8.844523653696188"><ele>446.0</ele><time>2026-05-04T09:51:38Z</time></trkpt><trkpt lat="42.491703540446075" lon="8.844482392816383"><ele>447.6666666666667</ele><time>2026-05-04T09:51:40Z</time></trkpt><trkpt lat="42.49179127540086" lon="8.84447445980958"><ele>449.33333333333337</ele><time>2026-05-04T09:51:43Z</time></trkpt><trkpt lat="42.49185476226119" lon="8.844454258878537"><ele>451.0</ele><time>2026-05-04T09:51:46Z</time></trkpt><trkpt lat="42.49193159454767" lon="8.844433885961227"><ele>451.00000000000006</ele><time>2026-05-04T09:52:20Z</time></trkpt><trkpt lat="42.49200261234455" lon="8.844414195773902"><ele>451.0</ele><time>2026-05-04T09:52:24Z</time></trkpt><trkpt lat="42.492081432907646" lon="8.844422796615945"><ele>451.0</ele><time>2026-05-04T09:52:28Z</time></trkpt><trkpt lat="42.492154685433036" lon="8.844406765476398"><ele>451.0</ele><time>2026-05-04T09:52:32Z</time></trkpt><trkpt lat="42.49222788200496" lon="8.844406647900392"><ele>451.00000000000006</ele><time>2026-05-04T09:52:35Z</time></trkpt><trkpt lat="42.49226740769808" lon="8.844309088680983"><ele>451.0</ele><time>2026-05-04T09:52:38Z</time></trkpt><trkpt lat="42.49231719469466" lon="8.844225156710973"><ele>453.85714285714283</ele><time>2026-05-04T09:52:41Z</time></trkpt><trkpt lat="42.49238021778211" lon="8.844265556772402"><ele>456.7142857142858</ele><time>2026-05-04T09:52:46Z</time></trkpt><trkpt lat="42.49245460886233" lon="8.844271460891644"><ele>459.5714285714286</ele><time>2026-05-04T09:52:50Z</time></trkpt><trkpt lat="42.49252862743428" lon="8.844294427337738"><ele>462.42857142857144</ele><time>2026-05-04T09:52:54Z</time></trkpt><trkpt lat="42.49258582708667" lon="8.844356816697603"><ele>465.28571428571433</ele><time>2026-05-04T09:52:58Z</time></trkpt><trkpt lat="42.49264492518711" lon="8.844425617878224"><ele>468.1428571428572</ele><time>2026-05-04T09:53:01Z</time></trkpt><trkpt lat="42.49271059018035" lon="8.844468012154236"><ele>471.00000000000006</ele><time>2026-05-04T09:53:05Z</time></trkpt><trkpt lat="42.492777675832485" lon="8.844431791854754"><ele>471.0</ele><time>2026-05-04T09:53:09Z</time></trkpt><trkpt lat="42.49279166219128" lon="8.844545300630624"><ele>471.0</ele><time>2026-05-04T09:53:13Z</time></trkpt><trkpt lat="42.49282555913329" lon="8.844632385516647"><ele>471.0</ele><time>2026-05-04T09:53:16Z</time></trkpt><trkpt lat="42.49284778060341" lon="8.844727021371966"><ele>471.0</ele><time>2026-05-04T09:53:20Z</time></trkpt><trkpt lat="42.49286967126154" lon="8.844829363824722"><ele>471.0</ele><time>2026-05-04T09:53:24Z</time></trkpt><trkpt lat="42.49292355839154" lon="8.84491788360108"><ele>471.0</ele><time>2026-05-04T09:53:28Z</time></trkpt><trkpt lat="42.49297247352921" lon="8.845019405497156"><ele>474.1428571428572</ele><time>2026-05-04T09:53:31Z</time></trkpt><trkpt lat="42.493014857738245" lon="8.845095200160479"><ele>477.28571428571433</ele><time>2026-05-04T09:53:35Z</time></trkpt><trkpt lat="42.493074114643576" lon="8.845162949010586"><ele>480.42857142857144</ele><time>2026-05-04T09:53:40Z</time></trkpt><trkpt lat="42.4931061539967" lon="8.845246028167136"><ele>483.5714285714286</ele><time>2026-05-04T09:53:45Z</time></trkpt><trkpt lat="42.49315724395787" lon="8.845317438740931"><ele>486.7142857142858</ele><time>2026-05-04T09:53:50Z</time></trkpt><trkpt lat="42.493176642005146" lon="8.845413588913965"><ele>489.85714285714283</ele><time>2026-05-04T09:53:54Z</time></trkpt><trkpt lat="42.49319502069085" lon="8.845506751252776"><ele>493.0</ele><time>2026-05-04T09:54:01Z</time></trkpt><trkpt lat="42.49323645960815" lon="8.845571653031802"><ele>494.2857142857143</ele><time>2026-05-04T09:54:12Z</time></trkpt><trkpt lat="42.49329373329629" lon="8.845619730476042"><ele>495.57142857142856</ele><time>2026-05-04T09:54:20Z</time></trkpt><trkpt lat="42.49329483285854" lon="8.845717281571906"><ele>496.85714285714283</ele><time>2026-05-04T09:54:36Z</time></trkpt><trkpt lat="42.49332318077821" lon="8.845810329551533"><ele>498.1428571428571</ele><time>2026-05-04T09:54:47Z</time></trkpt><trkpt lat="42.4934024510558" lon="8.845817483400786"><ele>499.42857142857144</ele><time>2026-05-04T09:54:51Z</time></trkpt><trkpt lat="42.4934346801388" lon="8.84591493061607"><ele>500.71428571428567</ele><time>2026-05-04T09:54:54Z</time></trkpt><trkpt lat="42.493419146611245" lon="8.845998190929205"><ele>501.99999999999994</ele><time>2026-05-04T09:54:57Z</time></trkpt><trkpt lat="42.49349635145878" lon="8.84602786971894"><ele>501.99999999999994</ele><time>2026-05-04T09:55:10Z</time></trkpt><trkpt lat="42.49355467935309" lon="8.845986946989916"><ele>502.0</ele><time>2026-05-04T09:55:17Z</time></trkpt><trkpt lat="42.493622747882476" lon="8.845976909215734"><ele>501.99999999999994</ele><time>2026-05-04T09:55:21Z</time></trkpt><trkpt lat="42.4936817142708" lon="8.845911636771579"><ele>501.99999999999994</ele><time>2026-05-04T09:55:24Z</time></trkpt><trkpt lat="42.49375059263697" lon="8.845879652751723"><ele>502.0</ele><time>2026-05-04T09:55:28Z</time></trkpt><trkpt lat="42.493818248822045" lon="8.845882524392378"><ele>501.99999999999994</ele><time>2026-05-04T09:55:31Z</time></trkpt><trkpt lat="42.49389605644575" lon="8.845873231799294"><ele>501.99999999999994</ele><time>2026-05-04T09:55:35Z</time></trkpt><trkpt lat="42.4939572021946" lon="8.845848512892438"><ele>505.42857142857133</ele><time>2026-05-04T09:55:39Z</time></trkpt><trkpt lat="42.494020463854575" lon="8.845860595976607"><ele>508.85714285714283</ele><time>2026-05-04T09:55:43Z</time></trkpt><trkpt lat="42.49409058972747" lon="8.845830884320419"><ele>512.2857142857142</ele><time>2026-05-04T09:55:49Z</time></trkpt><trkpt lat="42.49415939065488" lon="8.845814324148973"><ele>515.7142857142857</ele><time>2026-05-04T09:56:03Z</time></trkpt><trkpt lat="42.49422408119162" lon="8.845799459523278"><ele>519.1428571428571</ele><time>2026-05-04T09:56:06Z</time></trkpt><trkpt lat="42.49428069800367" lon="8.845728070615012"><ele>522.5714285714286</ele><time>2026-05-04T09:56:09Z</time></trkpt><trkpt lat="42.49435722798989" lon="8.845724210972518"><ele>526.0</ele><time>2026-05-04T09:56:14Z</time></trkpt><trkpt lat="42.494419835385145" lon="8.84569649145029"><ele>526.0</ele><time>2026-05-04T09:56:18Z</time></trkpt><trkpt lat="42.49447142270341" lon="8.845645161097838"><ele>526.0</ele><time>2026-05-04T09:56:22Z</time></trkpt><trkpt lat="42.49453896197916" lon="8.845557988732315"><ele>526.0</ele><time>2026-05-04T09:56:26Z</time></trkpt><trkpt lat="42.49457765014272" lon="8.845480395061456"><ele>526.0</ele><time>2026-05-04T09:56:30Z</time></trkpt><trkpt lat="42.49457565224554" lon="8.84538532624818"><ele>526.0</ele><time>2026-05-04T09:56:46Z</time></trkpt><trkpt lat="42.494621380831674" lon="8.845319075463784"><ele>526.0</ele><time>2026-05-04T09:56:58Z</time></trkpt><trkpt lat="42.49462588055778" lon="8.845221425785192"><ele>526.0</ele><time>2026-05-04T09:57:02Z</time></trkpt><trkpt lat="42.494688728784745" lon="8.84517148240811"><ele>529.8333333333334</ele><time>2026-05-04T09:57:06Z</time></trkpt><trkpt lat="42.49474159782459" lon="8.845273048353862"><ele>533.6666666666667</ele><time>2026-05-04T09:57:09Z</time></trkpt><trkpt lat="42.49477386086419" lon="8.845360623424794"><ele>537.5</ele><time>2026-05-04T09:57:11Z</time></trkpt><trkpt lat="42.49483634638604" lon="8.845387370418436"><ele>541.3333333333334</ele><time>2026-05-04T09:57:13Z</time></trkpt><trkpt lat="42.494905999907125" lon="8.845460166494899"><ele>545.1666666666666</ele><time>2026-05-04T09:57:16Z</time></trkpt><trkpt lat="42.49497687206343" lon="8.845510946062141"><ele>549.0</ele><time>2026-05-04T09:57:19Z</time></trkpt><trkpt lat="42.49501101513039" lon="8.84561067656439"><ele>549.0</ele><time>2026-05-04T09:57:23Z</time></trkpt><trkpt lat="42.49507004914426" lon="8.84567887236419"><ele>549.0</ele><time>2026-05-04T09:57:26Z</time></trkpt><trkpt lat="42.49507254898823" lon="8.845786640259824"><ele>549.0</ele><time>2026-05-04T09:57:29Z</time></trkpt><trkpt lat="42.49513031554894" lon="8.845859813495958"><ele>549.0</ele><time>2026-05-04T09:57:31Z</time></trkpt><trkpt lat="42.495150821413795" lon="8.845943396949723"><ele>549.0</ele><time>2026-05-04T09:58:32Z</time></trkpt><trkpt lat="42.495228118926796" lon="8.845958152818937"><ele>549.0</ele><time>2026-05-04T09:58:35Z</time></trkpt><trkpt lat="42.49529985515927" lon="8.845968194015224"><ele>551.4</ele><time>2026-05-04T09:58:48Z</time></trkpt><trkpt lat="42.495362720660715" lon="8.846038417147264"><ele>553.8</ele><time>2026-05-04T09:58:51Z</time></trkpt><trkpt lat="42.49541584179768" lon="8.846133277074811"><ele>556.2</ele><time>2026-05-04T09:58:54Z</time></trkpt><trkpt lat="42.495467836348716" lon="8.846217758213687"><ele>558.6</ele><time>2026-05-04T09:58:56Z</time></trkpt><trkpt lat="42.49552767893633" lon="8.846321706163266"><ele>561.0</ele><time>2026-05-04T09:58:58Z</time></trkpt><trkpt lat="42.49559469489746" lon="8.846447080528723"><ele>563.8</ele><time>2026-05-04T09:59:00Z</time></trkpt><trkpt lat="42.49563830447095" lon="8.846564929017816"><ele>566.6</ele><time>2026-05-04T09:59:02Z</time></trkpt><trkpt lat="42.4956553256803" lon="8.846720683996137"><ele>569.4</ele><time>2026-05-04T09:59:04Z</time></trkpt><trkpt lat="42.495682489405375" lon="8.846807257621418"><ele>572.2</ele><time>2026-05-04T09:59:05Z</time></trkpt><trkpt lat="42.4957263935751" lon="8.84688344331662"><ele>575.0</ele><time>2026-05-04T09:59:06Z</time></trkpt><trkpt lat="42.495817073585464" lon="8.846979477122575"><ele>575.6666666666666</ele><time>2026-05-04T09:59:08Z</time></trkpt><trkpt lat="42.49591690191496" lon="8.847084445799068"><ele>576.3333333333333</ele><time>2026-05-04T09:59:10Z</time></trkpt><trkpt lat="42.49597340961669" lon="8.84713697855417"><ele>577.0</ele><time>2026-05-04T09:59:11Z</time></trkpt><trkpt lat="42.496021169885296" lon="8.847199612096917"><ele>577.6666666666666</ele><time>2026-05-04T09:59:12Z</time></trkpt><trkpt lat="42.49605652316882" lon="8.84727730566205"><ele>578.3333333333334</ele><time>2026-05-04T09:59:13Z</time></trkpt><trkpt lat="42.49609886350887" lon="8.847363260682226"><ele>579.0</ele><time>2026-05-04T09:59:14Z</time></trkpt><trkpt lat="42.496147674513885" lon="8.847432734718057"><ele>579.0</ele><time>2026-05-04T09:59:15Z</time></trkpt><trkpt lat="42.496193899302746" lon="8.847500883114257"><ele>579.0</ele><time>2026-05-04T09:59:16Z</time></trkpt><trkpt lat="42.49625294477915" lon="8.84756849503598"><ele>579.0</ele><time>2026-05-04T09:59:18Z</time></trkpt><trkpt lat="42.49631597037236" lon="8.847672076554973"><ele>579.0</ele><time>2026-05-04T10:00:03Z</time></trkpt><trkpt lat="42.49636275639009" lon="8.84777495824103"><ele>579.0</ele><time>2026-05-04T10:00:05Z</time></trkpt><trkpt lat="42.49641299574826" lon="8.84786940539533"><ele>579.0</ele><time>2026-05-04T10:00:08Z</time></trkpt><trkpt lat="42.49642788481577" lon="8.847955867585176"><ele>579.5</ele><time>2026-05-04T10:00:28Z</time></trkpt><trkpt lat="42.496385951474025" lon="8.848039351168593"><ele>580.0</ele><time>2026-05-04T10:00:30Z</time></trkpt><trkpt lat="42.496334829884724" lon="8.848133039337775"><ele>580.5</ele><time>2026-05-04T10:00:32Z</time></trkpt><trkpt lat="42.49628850193814" lon="8.848202923869145"><ele>581.0</ele><time>2026-05-04T10:00:34Z</time></trkpt><trkpt lat="42.49623616067521" lon="8.848301635481471"><ele>581.5</ele><time>2026-05-04T10:00:38Z</time></trkpt><trkpt lat="42.496211958261675" lon="8.848384212980774"><ele>582.0</ele><time>2026-05-04T10:00:40Z</time></trkpt><trkpt lat="42.49617850304751" lon="8.848500878260465"><ele>582.0</ele><time>2026-05-04T10:00:42Z</time></trkpt><trkpt lat="42.49614440683883" lon="8.848598816988844"><ele>582.0</ele><time>2026-05-04T10:00:44Z</time></trkpt><trkpt lat="42.496132536724254" lon="8.848691569577074"><ele>582.0</ele><time>2026-05-04T10:00:47Z</time></trkpt><trkpt lat="42.49610027855865" lon="8.848771603218875"><ele>582.0</ele><time>2026-05-04T10:00:50Z</time></trkpt><trkpt lat="42.49609713290917" lon="8.848861434044197"><ele>582.0</ele><time>2026-05-04T10:00:57Z</time></trkpt><trkpt lat="42.49609805565014" lon="8.848961244804183"><ele>582.0</ele><time>2026-05-04T10:01:00Z</time></trkpt><trkpt lat="42.49608580170375" lon="8.849089555782477"><ele>582.0</ele><time>2026-05-04T10:01:04Z</time></trkpt><trkpt lat="42.49606849229414" lon="8.84919009726783"><ele>582.0</ele><time>2026-05-04T10:01:07Z</time></trkpt><trkpt lat="42.49608401414058" lon="8.849277526909193"><ele>582.0</ele><time>2026-05-04T10:01:20Z</time></trkpt><trkpt lat="42.496066030269084" lon="8.849373394116274"><ele>582.0</ele><time>2026-05-04T10:01:29Z</time></trkpt><trkpt lat="42.49604042644346" lon="8.849463717886701"><ele>582.0</ele><time>2026-05-04T10:01:33Z</time></trkpt><trkpt lat="42.49601237466275" lon="8.849569128664918"><ele>582.0</ele><time>2026-05-04T10:01:36Z</time></trkpt><trkpt lat="42.49599472887731" lon="8.849695224055651"><ele>580.5714285714286</ele><time>2026-05-04T10:01:40Z</time></trkpt><trkpt lat="42.49597842934767" lon="8.849782899672636"><ele>579.1428571428571</ele><time>2026-05-04T10:01:42Z</time></trkpt><trkpt lat="42.495939345060386" lon="8.84986318173928"><ele>577.7142857142857</ele><time>2026-05-04T10:01:45Z</time></trkpt><trkpt lat="42.495917313848075" lon="8.849947149222732"><ele>576.2857142857142</ele><time>2026-05-04T10:01:51Z</time></trkpt><trkpt lat="42.495998420738374" lon="8.8499470340061"><ele>574.8571428571429</ele><time>2026-05-04T10:01:54Z</time></trkpt><trkpt lat="42.49606584700102" lon="8.849902936954964"><ele>573.4285714285713</ele><time>2026-05-04T10:01:57Z</time></trkpt><trkpt lat="42.496132544496795" lon="8.849833145049946"><ele>572.0</ele><time>2026-05-04T10:02:01Z</time></trkpt><trkpt lat="42.49618920657805" lon="8.849771152804088"><ele>572.0</ele><time>2026-05-04T10:02:05Z</time></trkpt><trkpt lat="42.496238698120486" lon="8.849699650664133"><ele>572.0</ele><time>2026-05-04T10:02:09Z</time></trkpt><trkpt lat="42.4962943069862" lon="8.849764610023541"><ele>572.0</ele><time>2026-05-04T10:02:14Z</time></trkpt><trkpt lat="42.49627829593929" lon="8.849884061544705"><ele>572.0</ele><time>2026-05-04T10:02:17Z</time></trkpt><trkpt lat="42.496282683828106" lon="8.849977354396191"><ele>572.0</ele><time>2026-05-04T10:02:20Z</time></trkpt><trkpt lat="42.49625889600689" lon="8.850077158320838"><ele>572.0</ele><time>2026-05-04T10:02:24Z</time></trkpt><trkpt lat="42.49625698150521" lon="8.850182349699"><ele>565.3333333333333</ele><time>2026-05-04T10:02:28Z</time></trkpt><trkpt lat="42.49628101875297" lon="8.850285666650871"><ele>558.6666666666666</ele><time>2026-05-04T10:02:32Z</time></trkpt><trkpt lat="42.49627911094173" lon="8.850391069947182"><ele>552.0</ele><time>2026-05-04T10:02:36Z</time></trkpt><trkpt lat="42.496285081108425" lon="8.85051601445118"><ele>545.3333333333334</ele><time>2026-05-04T10:02:39Z</time></trkpt><trkpt lat="42.49628481738773" lon="8.850639632356287"><ele>538.6666666666667</ele><time>2026-05-04T10:02:43Z</time></trkpt><trkpt lat="42.49629363651755" lon="8.850748718959732"><ele>532.0</ele><time>2026-05-04T10:02:46Z</time></trkpt><trkpt lat="42.49631809546156" lon="8.850827707005891"><ele>532.0</ele><time>2026-05-04T10:02:48Z</time></trkpt><trkpt lat="42.49635442920257" lon="8.85092647932559"><ele>532.0</ele><time>2026-05-04T10:02:50Z</time></trkpt><trkpt lat="42.496362250374276" lon="8.851021551834808"><ele>532.0</ele><time>2026-05-04T10:02:52Z</time></trkpt><trkpt lat="42.49639070679063" lon="8.851106585547532"><ele>532.0</ele><time>2026-05-04T10:02:54Z</time></trkpt><trkpt lat="42.49641839993258" lon="8.851217268147943"><ele>532.0</ele><time>2026-05-04T10:02:57Z</time></trkpt><trkpt lat="42.49645361729657" lon="8.851288512259675"><ele>532.0</ele><time>2026-05-04T10:02:59Z</time></trkpt><trkpt lat="42.496494677413054" lon="8.851370977938753"><ele>532.0</ele><time>2026-05-04T10:03:01Z</time></trkpt><trkpt lat="42.49655323817404" lon="8.851445762529512"><ele>532.3333333333334</ele><time>2026-05-04T10:03:03Z</time></trkpt><trkpt lat="42.49660582575845" lon="8.851530032576056"><ele>532.6666666666667</ele><time>2026-05-04T10:03:05Z</time></trkpt><trkpt lat="42.49668707512757" lon="8.851644815597803"><ele>533.0</ele><time>2026-05-04T10:03:07Z</time></trkpt><trkpt lat="42.49672792818067" lon="8.851712588235852"><ele>533.3333333333334</ele><time>2026-05-04T10:03:08Z</time></trkpt><trkpt lat="42.49680259805374" lon="8.851815852401677"><ele>533.6666666666666</ele><time>2026-05-04T10:03:10Z</time></trkpt><trkpt lat="42.496857226024716" lon="8.851868677635913"><ele>534.0</ele><time>2026-05-04T10:03:14Z</time></trkpt><trkpt lat="42.49692732295531" lon="8.851926747654248"><ele>533.8333333333334</ele><time>2026-05-04T10:03:18Z</time></trkpt><trkpt lat="42.49698684804028" lon="8.851967556057746"><ele>533.6666666666666</ele><time>2026-05-04T10:03:21Z</time></trkpt><trkpt lat="42.49705239094312" lon="8.85198865439537"><ele>533.5</ele><time>2026-05-04T10:03:24Z</time></trkpt><trkpt lat="42.4971297810187" lon="8.852068315267232"><ele>533.3333333333333</ele><time>2026-05-04T10:03:27Z</time></trkpt><trkpt lat="42.49720663765374" lon="8.852078283025294"><ele>533.1666666666666</ele><time>2026-05-04T10:03:30Z</time></trkpt><trkpt lat="42.497266612449884" lon="8.85210933607049"><ele>533.0</ele><time>2026-05-04T10:03:32Z</time></trkpt><trkpt lat="42.49735579637586" lon="8.852119528685801"><ele>533.0</ele><time>2026-05-04T10:03:35Z</time></trkpt><trkpt lat="42.49742560817765" lon="8.852139059495938"><ele>533.0</ele><time>2026-05-04T10:03:37Z</time></trkpt><trkpt lat="42.49748971115106" lon="8.852143240527804"><ele>533.0</ele><time>2026-05-04T10:03:39Z</time></trkpt><trkpt lat="42.497579252685696" lon="8.852141658951613"><ele>533.0</ele><time>2026-05-04T10:03:42Z</time></trkpt><trkpt lat="42.49764814113268" lon="8.852148025034497"><ele>533.0</ele><time>2026-05-04T10:03:44Z</time></trkpt><trkpt lat="42.497716940290864" lon="8.85215483326317"><ele>533.0</ele><time>2026-05-04T10:03:46Z</time></trkpt><trkpt lat="42.49778408114578" lon="8.852199335032227"><ele>533.0</ele><time>2026-05-04T10:03:48Z</time></trkpt><trkpt lat="42.49785344377562" lon="8.852241036387474"><ele>529.4</ele><time>2026-05-04T10:03:50Z</time></trkpt><trkpt lat="42.49792656578844" lon="8.852278730411447"><ele>525.8</ele><time>2026-05-04T10:03:52Z</time></trkpt><trkpt lat="42.498025115602836" lon="8.852357060290068"><ele>522.2</ele><time>2026-05-04T10:03:54Z</time></trkpt><trkpt lat="42.49812826656935" lon="8.852395961060626"><ele>518.6</ele><time>2026-05-04T10:03:56Z</time></trkpt><trkpt lat="42.49823456067431" lon="8.852447090239213"><ele>515.0</ele><time>2026-05-04T10:03:58Z</time></trkpt><trkpt lat="42.49829937524548" lon="8.852485178176913"><ele>515.0</ele><time>2026-05-04T10:03:59Z</time></trkpt><trkpt lat="42.498371523338726" lon="8.852530838544224"><ele>515.0</ele><time>2026-05-04T10:04:00Z</time></trkpt><trkpt lat="42.49843885176722" lon="8.852566775520753"><ele>515.0</ele><time>2026-05-04T10:04:01Z</time></trkpt><trkpt lat="42.49853926766216" lon="8.852626349082046"><ele>515.0</ele><time>2026-05-04T10:04:03Z</time></trkpt><trkpt lat="42.498626886288754" lon="8.852656342805723"><ele>515.0</ele><time>2026-05-04T10:04:05Z</time></trkpt><trkpt lat="42.49870612508379" lon="8.852708749508198"><ele>515.0</ele><time>2026-05-04T10:04:07Z</time></trkpt><trkpt lat="42.49877817747166" lon="8.852695089621736"><ele>515.5714285714286</ele><time>2026-05-04T10:04:09Z</time></trkpt><trkpt lat="42.49884734430129" lon="8.852717647363601"><ele>516.1428571428571</ele><time>2026-05-04T10:04:11Z</time></trkpt><trkpt lat="42.49891017222644" lon="8.852727043572383"><ele>516.7142857142857</ele><time>2026-05-04T10:04:14Z</time></trkpt><trkpt lat="42.49898289251247" lon="8.85272244149035"><ele>517.2857142857142</ele><time>2026-05-04T10:04:18Z</time></trkpt><trkpt lat="42.49903116263926" lon="8.852654615622217"><ele>517.8571428571428</ele><time>2026-05-04T10:04:43Z</time></trkpt><trkpt lat="42.49904482183097" lon="8.852560653673315"><ele>518.4285714285714</ele><time>2026-05-04T10:05:12Z</time></trkpt><trkpt lat="42.499011046826695" lon="8.8526458754428"><ele>519.0</ele><time>2026-05-04T10:05:39Z</time></trkpt><trkpt lat="42.49895167494496" lon="8.852711754621184"><ele>519.0</ele><time>2026-05-04T10:06:14Z</time></trkpt><trkpt lat="42.49888374062082" lon="8.852688827452532"><ele>519.0</ele><time>2026-05-04T10:06:17Z</time></trkpt><trkpt lat="42.49888272122044" lon="8.852564357309314"><ele>519.0</ele><time>2026-05-04T10:06:20Z</time></trkpt><trkpt lat="42.49889023959099" lon="8.852475985620218"><ele>519.0</ele><time>2026-05-04T10:06:22Z</time></trkpt><trkpt lat="42.498882967999585" lon="8.85238587424745"><ele>519.0</ele><time>2026-05-04T10:06:25Z</time></trkpt><trkpt lat="42.498893004381294" lon="8.852285007005111"><ele>519.0</ele><time>2026-05-04T10:06:32Z</time></trkpt><trkpt lat="42.49890838650792" lon="8.852196948870263"><ele>519.0</ele><time>2026-05-04T10:06:35Z</time></trkpt><trkpt lat="42.498899732688294" lon="8.852074101464696"><ele>516.0</ele><time>2026-05-04T10:08:09Z</time></trkpt><trkpt lat="42.49885811463326" lon="8.852002540568405"><ele>513.0</ele><time>2026-05-04T10:08:12Z</time></trkpt><trkpt lat="42.498807356631566" lon="8.851945028085176"><ele>510.0</ele><time>2026-05-04T10:08:18Z</time></trkpt><trkpt lat="42.49881814842754" lon="8.851855623163372"><ele>507.0</ele><time>2026-05-04T10:08:20Z</time></trkpt><trkpt lat="42.49884140070444" lon="8.851764612449438"><ele>503.99999999999994</ele><time>2026-05-04T10:08:22Z</time></trkpt><trkpt lat="42.49883796409579" lon="8.851675355682389"><ele>501.0</ele><time>2026-05-04T10:08:24Z</time></trkpt><trkpt lat="42.498859391002306" lon="8.851566058136086"><ele>498.0</ele><time>2026-05-04T10:08:27Z</time></trkpt><trkpt lat="42.4988647980195" lon="8.851473811548978"><ele>498.0</ele><time>2026-05-04T10:08:30Z</time></trkpt><trkpt lat="42.49883567366124" lon="8.851362933929513"><ele>498.0</ele><time>2026-05-04T10:08:33Z</time></trkpt><trkpt lat="42.49875797889861" lon="8.851325530084738"><ele>498.0</ele><time>2026-05-04T10:08:45Z</time></trkpt><trkpt lat="42.4986694318669" lon="8.851318886796399"><ele>498.0</ele><time>2026-05-04T10:08:49Z</time></trkpt><trkpt lat="42.4986075231901" lon="8.851230684232478"><ele>498.0</ele><time>2026-05-04T10:08:52Z</time></trkpt><trkpt lat="42.498555466680955" lon="8.851175691550687"><ele>498.0</ele><time>2026-05-04T10:08:56Z</time></trkpt><trkpt lat="42.49852069864213" lon="8.851083045374072"><ele>498.0</ele><time>2026-05-04T10:08:59Z</time></trkpt><trkpt lat="42.49849520555895" lon="8.850994335500767"><ele>498.0</ele><time>2026-05-04T10:09:02Z</time></trkpt><trkpt lat="42.49847513515903" lon="8.850885360884845"><ele>498.0</ele><time>2026-05-04T10:09:05Z</time></trkpt><trkpt lat="42.49845457680022" lon="8.850796783003615"><ele>498.0</ele><time>2026-05-04T10:09:08Z</time></trkpt><trkpt lat="42.498421621065226" lon="8.850708286628533"><ele>498.0</ele><time>2026-05-04T10:09:10Z</time></trkpt><trkpt lat="42.49839006105775" lon="8.850590499112451"><ele>498.0</ele><time>2026-05-04T10:09:12Z</time></trkpt><trkpt lat="42.498336746319005" lon="8.850535051579904"><ele>495.8333333333333</ele><time>2026-05-04T10:09:14Z</time></trkpt><trkpt lat="42.498263778246404" lon="8.850460244135958"><ele>493.66666666666663</ele><time>2026-05-04T10:09:18Z</time></trkpt><trkpt lat="42.49828032321342" lon="8.850371498254146"><ele>491.5</ele><time>2026-05-04T10:09:21Z</time></trkpt><trkpt lat="42.498349204829246" lon="8.850361321348961"><ele>489.3333333333333</ele><time>2026-05-04T10:09:24Z</time></trkpt><trkpt lat="42.498344747450275" lon="8.85023422749396"><ele>487.16666666666663</ele><time>2026-05-04T10:09:26Z</time></trkpt><trkpt lat="42.49833855947112" lon="8.850121244437442"><ele>485.0</ele><time>2026-05-04T10:09:28Z</time></trkpt><trkpt lat="42.498339277934946" lon="8.850019655645333"><ele>483.66666666666663</ele><time>2026-05-04T10:09:30Z</time></trkpt><trkpt lat="42.498392804376515" lon="8.84990307488094"><ele>482.3333333333333</ele><time>2026-05-04T10:09:32Z</time></trkpt><trkpt lat="42.49844608261207" lon="8.84985338687456"><ele>481.0</ele><time>2026-05-04T10:09:34Z</time></trkpt><trkpt lat="42.49851462944534" lon="8.849764594827345"><ele>479.66666666666663</ele><time>2026-05-04T10:09:36Z</time></trkpt><trkpt lat="42.49856964330329" lon="8.84968821336694"><ele>478.3333333333333</ele><time>2026-05-04T10:09:39Z</time></trkpt><trkpt lat="42.49859056215393" lon="8.849586434661385"><ele>477.0</ele><time>2026-05-04T10:09:42Z</time></trkpt><trkpt lat="42.49859575742019" lon="8.849484212749871"><ele>477.0</ele><time>2026-05-04T10:09:53Z</time></trkpt><trkpt lat="42.4986178284863" lon="8.849398087267586"><ele>476.99999999999994</ele><time>2026-05-04T10:10:03Z</time></trkpt><trkpt lat="42.49864397888982" lon="8.849313664201885"><ele>477.0</ele><time>2026-05-04T10:10:07Z</time></trkpt><trkpt lat="42.49871468255045" lon="8.849276062518044"><ele>477.0</ele><time>2026-05-04T10:10:17Z</time></trkpt><trkpt lat="42.498788805727685" lon="8.849269051251445"><ele>476.99999999999994</ele><time>2026-05-04T10:10:32Z</time></trkpt><trkpt lat="42.498846133093835" lon="8.849212390414593"><ele>477.0</ele><time>2026-05-04T10:10:46Z</time></trkpt><trkpt lat="42.49891389540776" lon="8.849218086062065"><ele>477.0</ele><time>2026-05-04T10:11:03Z</time></trkpt><trkpt lat="42.49898650433506" lon="8.849233981432794"><ele>474.1666666666667</ele><time>2026-05-04T10:11:11Z</time></trkpt><trkpt lat="42.49905097701441" lon="8.849253566066901"><ele>471.33333333333337</ele><time>2026-05-04T10:11:16Z</time></trkpt><trkpt lat="42.49914096855105" lon="8.849238072597064"><ele>468.5</ele><time>2026-05-04T10:11:20Z</time></trkpt><trkpt lat="42.49923292901615" lon="8.849272912852637"><ele>465.6666666666667</ele><time>2026-05-04T10:11:24Z</time></trkpt><trkpt lat="42.49929211410936" lon="8.849238258080335"><ele>462.83333333333337</ele><time>2026-05-04T10:11:26Z</time></trkpt><trkpt lat="42.49937127861885" lon="8.849227372731141"><ele>460.0</ele><time>2026-05-04T10:11:29Z</time></trkpt><trkpt lat="42.49945203176881" lon="8.84925363293796"><ele>460.00000000000006</ele><time>2026-05-04T10:11:33Z</time></trkpt><trkpt lat="42.499529121789394" lon="8.849241520929269"><ele>460.0</ele><time>2026-05-04T10:11:36Z</time></trkpt><trkpt lat="42.49960657093697" lon="8.849204689584225"><ele>460.0</ele><time>2026-05-04T10:11:39Z</time></trkpt><trkpt lat="42.49968000981734" lon="8.849217079776714"><ele>460.0</ele><time>2026-05-04T10:11:41Z</time></trkpt><trkpt lat="42.49977967869901" lon="8.849173840539162"><ele>460.00000000000006</ele><time>2026-05-04T10:11:43Z</time></trkpt><trkpt lat="42.499868211792425" lon="8.849175215142973"><ele>460.0</ele><time>2026-05-04T10:11:46Z</time></trkpt><trkpt lat="42.49993518499809" lon="8.849138440291474"><ele>456.6666666666667</ele><time>2026-05-04T10:11:49Z</time></trkpt><trkpt lat="42.500021106105955" lon="8.849113042835407"><ele>453.33333333333337</ele><time>2026-05-04T10:11:58Z</time></trkpt><trkpt lat="42.50010040748959" lon="8.849090820780727"><ele>450.0</ele><time>2026-05-04T10:12:17Z</time></trkpt><trkpt lat="42.50018167242777" lon="8.849127151629409"><ele>446.66666666666663</ele><time>2026-05-04T10:12:20Z</time></trkpt><trkpt lat="42.5001837768319" lon="8.849214636331475"><ele>443.3333333333333</ele><time>2026-05-04T10:12:23Z</time></trkpt><trkpt lat="42.50026665133455" lon="8.849261680734466"><ele>440.0</ele><time>2026-05-04T10:12:45Z</time></trkpt><trkpt lat="42.50034216175943" lon="8.849275467856254"><ele>436.66666666666663</ele><time>2026-05-04T10:12:47Z</time></trkpt><trkpt lat="42.50043006320892" lon="8.84927580851119"><ele>433.3333333333333</ele><time>2026-05-04T10:12:50Z</time></trkpt><trkpt lat="42.50051211374108" lon="8.849351759219298"><ele>430.0</ele><time>2026-05-04T10:12:52Z</time></trkpt><trkpt lat="42.500554602280815" lon="8.849415093349297"><ele>426.66666666666663</ele><time>2026-05-04T10:12:55Z</time></trkpt><trkpt lat="42.5006415361205" lon="8.849429067022683"><ele>423.3333333333333</ele><time>2026-05-04T10:12:58Z</time></trkpt><trkpt lat="42.50068226975714" lon="8.8494985049717"><ele>420.0</ele><time>2026-05-04T10:13:00Z</time></trkpt><trkpt lat="42.50072972451318" lon="8.849561039628254"><ele>419.5</ele><time>2026-05-04T10:13:02Z</time></trkpt><trkpt lat="42.50075526211344" lon="8.849667495114721"><ele>419.0</ele><time>2026-05-04T10:13:05Z</time></trkpt><trkpt lat="42.50077817307113" lon="8.84976742476963"><ele>418.5</ele><time>2026-05-04T10:13:07Z</time></trkpt><trkpt lat="42.50083550846311" lon="8.849855589223234"><ele>418.0</ele><time>2026-05-04T10:13:09Z</time></trkpt><trkpt lat="42.500884720906356" lon="8.84994169347892"><ele>417.5</ele><time>2026-05-04T10:13:12Z</time></trkpt><trkpt lat="42.500945682894496" lon="8.850014975174926"><ele>417.0</ele><time>2026-05-04T10:13:14Z</time></trkpt><trkpt lat="42.50097561690597" lon="8.850095764535883"><ele>417.7142857142857</ele><time>2026-05-04T10:13:16Z</time></trkpt><trkpt lat="42.50100128638617" lon="8.85018182210105"><ele>418.4285714285714</ele><time>2026-05-04T10:13:18Z</time></trkpt><trkpt lat="42.50104320907104" lon="8.850255707507591"><ele>419.1428571428571</ele><time>2026-05-04T10:13:20Z</time></trkpt><trkpt lat="42.50104673957137" lon="8.850342345393152"><ele>419.8571428571429</ele><time>2026-05-04T10:13:26Z</time></trkpt><trkpt lat="42.50107586024266" lon="8.850419678899828"><ele>420.57142857142856</ele><time>2026-05-04T10:13:31Z</time></trkpt><trkpt lat="42.50111301829987" lon="8.850516322591188"><ele>421.2857142857143</ele><time>2026-05-04T10:13:34Z</time></trkpt><trkpt lat="42.50118666516883" lon="8.850536173766912"><ele>422.0</ele><time>2026-05-04T10:13:37Z</time></trkpt><trkpt lat="42.50126326141925" lon="8.850519051597244"><ele>418.14285714285717</ele><time>2026-05-04T10:13:40Z</time></trkpt><trkpt lat="42.50133845828944" lon="8.850487325575184"><ele>414.28571428571433</ele><time>2026-05-04T10:13:44Z</time></trkpt><trkpt lat="42.5014155959084" lon="8.850478838529739"><ele>410.42857142857144</ele><time>2026-05-04T10:13:48Z</time></trkpt><trkpt lat="42.50149863574275" lon="8.850444241757911"><ele>406.57142857142856</ele><time>2026-05-04T10:13:51Z</time></trkpt><trkpt lat="42.50155864159494" lon="8.85041314803399"><ele>402.7142857142857</ele><time>2026-05-04T10:13:54Z</time></trkpt><trkpt lat="42.50161564516324" lon="8.850449999256048"><ele>398.85714285714283</ele><time>2026-05-04T10:15:06Z</time></trkpt><trkpt lat="42.501681388565565" lon="8.850465180829257"><ele>395.0</ele><time>2026-05-04T10:15:15Z</time></trkpt><trkpt lat="42.501735223466675" lon="8.850410160181555"><ele>395.0</ele><time>2026-05-04T10:15:24Z</time></trkpt><trkpt lat="42.50179555671233" lon="8.850378451231125"><ele>395.0</ele><time>2026-05-04T10:15:27Z</time></trkpt><trkpt lat="42.50185661152932" lon="8.850343874261213"><ele>395.0</ele><time>2026-05-04T10:15:41Z</time></trkpt><trkpt lat="42.50190086456236" lon="8.850280006321565"><ele>395.0</ele><time>2026-05-04T10:15:51Z</time></trkpt><trkpt lat="42.50196501735723" lon="8.850307429421308"><ele>395.0</ele><time>2026-05-04T10:16:00Z</time></trkpt><trkpt lat="42.50202877968909" lon="8.850297160351463"><ele>395.0</ele><time>2026-05-04T10:16:04Z</time></trkpt><trkpt lat="42.50209669553536" lon="8.850280394582603"><ele>395.0</ele><time>2026-05-04T10:16:09Z</time></trkpt><trkpt lat="42.502173871342684" lon="8.850285393337433"><ele>392.0</ele><time>2026-05-04T10:16:12Z</time></trkpt><trkpt lat="42.502231539110504" lon="8.850326651345242"><ele>389.0</ele><time>2026-05-04T10:16:16Z</time></trkpt><trkpt lat="42.502296689739715" lon="8.850317500637763"><ele>386.0</ele><time>2026-05-04T10:16:18Z</time></trkpt><trkpt lat="42.50236462275625" lon="8.85032207251529"><ele>383.0</ele><time>2026-05-04T10:16:20Z</time></trkpt><trkpt lat="42.502444436525685" lon="8.850341751407177"><ele>380.0</ele><time>2026-05-04T10:16:22Z</time></trkpt><trkpt lat="42.50251704399359" lon="8.850349035088781"><ele>377.0</ele><time>2026-05-04T10:16:24Z</time></trkpt><trkpt lat="42.50260843095185" lon="8.850360380945792"><ele>374.0</ele><time>2026-05-04T10:16:26Z</time></trkpt><trkpt lat="42.502697949170255" lon="8.850383539687057"><ele>374.0</ele><time>2026-05-04T10:16:28Z</time></trkpt><trkpt lat="42.50277992657797" lon="8.850429806777878"><ele>374.0</ele><time>2026-05-04T10:16:30Z</time></trkpt><trkpt lat="42.50285883113325" lon="8.85049931184978"><ele>374.0</ele><time>2026-05-04T10:16:32Z</time></trkpt><trkpt lat="42.50292594191062" lon="8.85056674547944"><ele>374.0</ele><time>2026-05-04T10:16:34Z</time></trkpt><trkpt lat="42.502990122285745" lon="8.850661705341086"><ele>374.0</ele><time>2026-05-04T10:16:36Z</time></trkpt><trkpt lat="42.50304275294438" lon="8.850715537679445"><ele>374.0</ele><time>2026-05-04T10:16:39Z</time></trkpt><trkpt lat="42.503084459045716" lon="8.850811798310165"><ele>373.33333333333337</ele><time>2026-05-04T10:16:43Z</time></trkpt><trkpt lat="42.50313580468184" lon="8.85088645426384"><ele>372.6666666666667</ele><time>2026-05-04T10:16:46Z</time></trkpt><trkpt lat="42.50319791960045" lon="8.850954871240061"><ele>372.0</ele><time>2026-05-04T10:17:04Z</time></trkpt><trkpt lat="42.50327260043376" lon="8.851006239531237"><ele>371.3333333333333</ele><time>2026-05-04T10:17:16Z</time></trkpt><trkpt lat="42.50335198708021" lon="8.851058232084242"><ele>370.66666666666663</ele><time>2026-05-04T10:17:21Z</time></trkpt><trkpt lat="42.50341959300635" lon="8.851080031776563"><ele>370.0</ele><time>2026-05-04T10:17:25Z</time></trkpt><trkpt lat="42.50347195560629" lon="8.851143500169082"><ele>366.0</ele><time>2026-05-04T10:17:29Z</time></trkpt><trkpt lat="42.50355041342101" lon="8.851105714133457"><ele>362.0</ele><time>2026-05-04T10:17:33Z</time></trkpt><trkpt lat="42.50362833458719" lon="8.851081358038744"><ele>358.0</ele><time>2026-05-04T10:17:37Z</time></trkpt><trkpt lat="42.50370732388843" lon="8.851022056675415"><ele>354.0</ele><time>2026-05-04T10:17:40Z</time></trkpt><trkpt lat="42.50376124096425" lon="8.850964175857657"><ele>350.0</ele><time>2026-05-04T10:17:43Z</time></trkpt><trkpt lat="42.503812189948675" lon="8.850913493870065"><ele>346.0</ele><time>2026-05-04T10:17:46Z</time></trkpt><trkpt lat="42.503816813858336" lon="8.851002736507544"><ele>346.0</ele><time>2026-05-04T10:17:50Z</time></trkpt><trkpt lat="42.5037869765533" lon="8.851096917623329"><ele>346.0</ele><time>2026-05-04T10:17:54Z</time></trkpt><trkpt lat="42.50379390479241" lon="8.85119278112212"><ele>346.0</ele><time>2026-05-04T10:17:57Z</time></trkpt><trkpt lat="42.50377608003734" lon="8.851295644388722"><ele>346.0</ele><time>2026-05-04T10:17:59Z</time></trkpt><trkpt lat="42.50376204763251" lon="8.851411990374856"><ele>346.0</ele><time>2026-05-04T10:18:01Z</time></trkpt><trkpt lat="42.50374807788096" lon="8.851502052975379"><ele>346.0</ele><time>2026-05-04T10:18:04Z</time></trkpt><trkpt lat="42.503739139540244" lon="8.851587457494531"><ele>346.0</ele><time>2026-05-04T10:18:09Z</time></trkpt><trkpt lat="42.50380229775125" lon="8.851646069303245"><ele>343.0</ele><time>2026-05-04T10:18:25Z</time></trkpt><trkpt lat="42.50380466748975" lon="8.85173283580579"><ele>340.0</ele><time>2026-05-04T10:18:38Z</time></trkpt><trkpt lat="42.50386959635375" lon="8.851781373645407"><ele>337.0</ele><time>2026-05-04T10:18:52Z</time></trkpt><trkpt lat="42.50394977623909" lon="8.85172764241865"><ele>334.0</ele><time>2026-05-04T10:18:56Z</time></trkpt><trkpt lat="42.50399154459671" lon="8.851652198361519"><ele>331.0</ele><time>2026-05-04T10:18:58Z</time></trkpt><trkpt lat="42.50405065504313" lon="8.851599881513442"><ele>328.0</ele><time>2026-05-04T10:19:00Z</time></trkpt><trkpt lat="42.50409737193597" lon="8.851533491336422"><ele>325.0</ele><time>2026-05-04T10:19:02Z</time></trkpt><trkpt lat="42.5040945696903" lon="8.85163038639626"><ele>325.0</ele><time>2026-05-04T10:19:07Z</time></trkpt><trkpt lat="42.50408661535231" lon="8.851731400632847"><ele>325.0</ele><time>2026-05-04T10:19:09Z</time></trkpt><trkpt lat="42.504061129117524" lon="8.85181949551307"><ele>325.0</ele><time>2026-05-04T10:19:11Z</time></trkpt><trkpt lat="42.504060136765446" lon="8.85191401193233"><ele>325.0</ele><time>2026-05-04T10:19:13Z</time></trkpt><trkpt lat="42.504054531699246" lon="8.852004994620355"><ele>325.0</ele><time>2026-05-04T10:19:15Z</time></trkpt><trkpt lat="42.504040259750816" lon="8.852092359709054"><ele>325.0</ele><time>2026-05-04T10:19:20Z</time></trkpt><trkpt lat="42.50402383639576" lon="8.852209776054286"><ele>325.0</ele><time>2026-05-04T10:19:24Z</time></trkpt><trkpt lat="42.50403768289086" lon="8.852303748882466"><ele>326.2857142857143</ele><time>2026-05-04T10:19:26Z</time></trkpt><trkpt lat="42.50397094280718" lon="8.852339266974738"><ele>327.5714285714286</ele><time>2026-05-04T10:19:32Z</time></trkpt><trkpt lat="42.50402544710825" lon="8.852393264118815"><ele>328.8571428571429</ele><time>2026-05-04T10:19:38Z</time></trkpt><trkpt lat="42.50409051187272" lon="8.852416322470974"><ele>330.1428571428571</ele><time>2026-05-04T10:19:43Z</time></trkpt><trkpt lat="42.50411053800577" lon="8.852497457289044"><ele>331.42857142857144</ele><time>2026-05-04T10:19:47Z</time></trkpt><trkpt lat="42.50414321934523" lon="8.852579543172984"><ele>332.7142857142857</ele><time>2026-05-04T10:20:00Z</time></trkpt><trkpt lat="42.50416969540076" lon="8.852662251935305"><ele>334.0</ele><time>2026-05-04T10:20:34Z</time></trkpt><trkpt lat="42.5042179360658" lon="8.852765957291096"><ele>334.0</ele><time>2026-05-04T10:20:36Z</time></trkpt><trkpt lat="42.50428909921696" lon="8.85282491061598"><ele>334.0</ele><time>2026-05-04T10:20:42Z</time></trkpt><trkpt lat="42.504377438951536" lon="8.852811157883188"><ele>334.0</ele><time>2026-05-04T10:20:45Z</time></trkpt><trkpt lat="42.50447905003245" lon="8.852819985560444"><ele>334.0</ele><time>2026-05-04T10:20:50Z</time></trkpt><trkpt lat="42.50456792155296" lon="8.852783603604411"><ele>334.0</ele><time>2026-05-04T10:20:52Z</time></trkpt><trkpt lat="42.50466017279621" lon="8.852805928374483"><ele>330.0</ele><time>2026-05-04T10:21:01Z</time></trkpt><trkpt lat="42.50476156500912" lon="8.8528898277281"><ele>326.0</ele><time>2026-05-04T10:21:03Z</time></trkpt><trkpt lat="42.50482488970242" lon="8.852937696240161"><ele>322.0</ele><time>2026-05-04T10:21:04Z</time></trkpt><trkpt lat="42.504900616215174" lon="8.85300850079222"><ele>318.0</ele><time>2026-05-04T10:21:05Z</time></trkpt><trkpt lat="42.50496738294786" lon="8.853065744482915"><ele>314.0</ele><time>2026-05-04T10:21:06Z</time></trkpt><trkpt lat="42.50501833090734" lon="8.853129896007717"><ele>310.0</ele><time>2026-05-04T10:21:07Z</time></trkpt><trkpt lat="42.50510610188965" lon="8.853220857774879"><ele>310.0</ele><time>2026-05-04T10:21:09Z</time></trkpt><trkpt lat="42.50517323009004" lon="8.853253981951754"><ele>310.0</ele><time>2026-05-04T10:21:10Z</time></trkpt><trkpt lat="42.50523286617598" lon="8.853286798271673"><ele>310.0</ele><time>2026-05-04T10:21:11Z</time></trkpt><trkpt lat="42.505355923265824" lon="8.85332182148152"><ele>310.0</ele><time>2026-05-04T10:21:13Z</time></trkpt><trkpt lat="42.50543159200363" lon="8.85334156309383"><ele>310.0</ele><time>2026-05-04T10:21:14Z</time></trkpt><trkpt lat="42.5055294088363" lon="8.853351166354967"><ele>310.0</ele><time>2026-05-04T10:21:16Z</time></trkpt><trkpt lat="42.50562468770346" lon="8.853377057718054"><ele>308.6</ele><time>2026-05-04T10:21:18Z</time></trkpt><trkpt lat="42.50569704548461" lon="8.853436162191173"><ele>307.2</ele><time>2026-05-04T10:21:20Z</time></trkpt><trkpt lat="42.50573433144635" lon="8.853538420780513"><ele>305.8</ele><time>2026-05-04T10:21:22Z</time></trkpt><trkpt lat="42.50576575331231" lon="8.853651198797401"><ele>304.4</ele><time>2026-05-04T10:21:24Z</time></trkpt><trkpt lat="42.505814004497815" lon="8.853799110987053"><ele>303.0</ele><time>2026-05-04T10:21:26Z</time></trkpt><trkpt lat="42.50584224364596" lon="8.853948067706687"><ele>303.0</ele><time>2026-05-04T10:21:28Z</time></trkpt><trkpt lat="42.50586523533497" lon="8.854059483699466"><ele>303.0</ele><time>2026-05-04T10:21:30Z</time></trkpt><trkpt lat="42.505872887384704" lon="8.854166786427786"><ele>303.0</ele><time>2026-05-04T10:21:32Z</time></trkpt><trkpt lat="42.505906941147785" lon="8.854266122864146"><ele>303.0</ele><time>2026-05-04T10:21:35Z</time></trkpt><trkpt lat="42.50595680569757" lon="8.854345588329966"><ele>303.0</ele><time>2026-05-04T10:21:39Z</time></trkpt><trkpt lat="42.505967268368735" lon="8.854438065767486"><ele>303.0</ele><time>2026-05-04T10:21:43Z</time></trkpt><trkpt lat="42.50602244840887" lon="8.854512211069283"><ele>304.0</ele><time>2026-05-04T10:21:57Z</time></trkpt><trkpt lat="42.5060435798768" lon="8.854628268011458"><ele>305.0</ele><time>2026-05-04T10:22:01Z</time></trkpt><trkpt lat="42.506056911206684" lon="8.854729532941017"><ele>306.0</ele><time>2026-05-04T10:22:03Z</time></trkpt><trkpt lat="42.50608344939824" lon="8.854822945700263"><ele>307.0</ele><time>2026-05-04T10:22:05Z</time></trkpt><trkpt lat="42.506142901635606" lon="8.85494382872626"><ele>308.0</ele><time>2026-05-04T10:22:07Z</time></trkpt><trkpt lat="42.50618789294646" lon="8.855064732560113"><ele>309.0</ele><time>2026-05-04T10:22:09Z</time></trkpt><trkpt lat="42.50627556786657" lon="8.85510713709566"><ele>306.8333333333333</ele><time>2026-05-04T10:22:11Z</time></trkpt><trkpt lat="42.50632813601996" lon="8.855171377038015"><ele>304.6666666666667</ele><time>2026-05-04T10:22:13Z</time></trkpt><trkpt lat="42.506433722991396" lon="8.855222122918576"><ele>302.5</ele><time>2026-05-04T10:22:16Z</time></trkpt><trkpt lat="42.50649947396472" lon="8.855250666201558"><ele>300.33333333333337</ele><time>2026-05-04T10:22:17Z</time></trkpt><trkpt lat="42.506563804017105" lon="8.855270210479047"><ele>298.1666666666667</ele><time>2026-05-04T10:22:18Z</time></trkpt><trkpt lat="42.50664206433218" lon="8.855288043959897"><ele>296.0</ele><time>2026-05-04T10:22:20Z</time></trkpt><trkpt lat="42.5067821142056" lon="8.85521532091387"><ele>296.0</ele><time>2026-05-04T10:22:24Z</time></trkpt><trkpt lat="42.506875148496896" lon="8.855163296648259"><ele>296.0</ele><time>2026-05-04T10:22:26Z</time></trkpt><trkpt lat="42.506978266054034" lon="8.8550811940219"><ele>296.0</ele><time>2026-05-04T10:22:28Z</time></trkpt><trkpt lat="42.507057808223365" lon="8.855045143972601"><ele>296.0</ele><time>2026-05-04T10:22:30Z</time></trkpt><trkpt lat="42.50710978385305" lon="8.85495747262445"><ele>296.0</ele><time>2026-05-04T10:22:32Z</time></trkpt><trkpt lat="42.50714145024555" lon="8.854870571287021"><ele>294.0</ele><time>2026-05-04T10:22:34Z</time></trkpt><trkpt lat="42.50714943985147" lon="8.85477939882666"><ele>292.0</ele><time>2026-05-04T10:22:37Z</time></trkpt><trkpt lat="42.507168181050616" lon="8.854696937788491"><ele>290.0</ele><time>2026-05-04T10:22:39Z</time></trkpt><trkpt lat="42.50720952667397" lon="8.854577431112183"><ele>288.0</ele><time>2026-05-04T10:22:42Z</time></trkpt><trkpt lat="42.50725820251828" lon="8.854522310668536"><ele>286.0</ele><time>2026-05-04T10:22:43Z</time></trkpt><trkpt lat="42.50732421601807" lon="8.854433390200057"><ele>284.0</ele><time>2026-05-04T10:22:45Z</time></trkpt><trkpt lat="42.50738718883166" lon="8.854423217111645"><ele>282.0</ele><time>2026-05-04T10:22:46Z</time></trkpt><trkpt lat="42.50743522814924" lon="8.854296908055673"><ele>281.1666666666667</ele><time>2026-05-04T10:22:48Z</time></trkpt><trkpt lat="42.50749655148456" lon="8.854188168208047"><ele>280.3333333333333</ele><time>2026-05-04T10:22:50Z</time></trkpt><trkpt lat="42.50754920234086" lon="8.85407160196856"><ele>279.5</ele><time>2026-05-04T10:22:52Z</time></trkpt><trkpt lat="42.507603790232025" lon="8.854007721602487"><ele>278.66666666666663</ele><time>2026-05-04T10:22:54Z</time></trkpt><trkpt lat="42.50766679622105" lon="8.85408080615254"><ele>277.8333333333333</ele><time>2026-05-04T10:22:59Z</time></trkpt><trkpt lat="42.507731292825085" lon="8.854169483757545"><ele>277.0</ele><time>2026-05-04T10:23:00Z</time></trkpt><trkpt lat="42.50778959740603" lon="8.854279431729616"><ele>277.8333333333333</ele><time>2026-05-04T10:23:02Z</time></trkpt><trkpt lat="42.5078264770157" lon="8.854353429685737"><ele>278.66666666666663</ele><time>2026-05-04T10:23:04Z</time></trkpt><trkpt lat="42.50787489068975" lon="8.854461367453373"><ele>279.5</ele><time>2026-05-04T10:23:11Z</time></trkpt><trkpt lat="42.507921478332484" lon="8.854575383402045"><ele>280.3333333333333</ele><time>2026-05-04T10:23:13Z</time></trkpt><trkpt lat="42.50796116334653" lon="8.854647000019565"><ele>281.1666666666667</ele><time>2026-05-04T10:23:15Z</time></trkpt><trkpt lat="42.50800246020032" lon="8.85472961901743"><ele>282.0</ele><time>2026-05-04T10:23:21Z</time></trkpt><trkpt lat="42.50808221015702" lon="8.854820834931095"><ele>280.57142857142856</ele><time>2026-05-04T10:23:24Z</time></trkpt><trkpt lat="42.50814990383362" lon="8.854846964141466"><ele>279.1428571428571</ele><time>2026-05-04T10:23:26Z</time></trkpt><trkpt lat="42.5081921954612" lon="8.854748006457617"><ele>277.71428571428567</ele><time>2026-05-04T10:23:28Z</time></trkpt><trkpt lat="42.50815606459047" lon="8.85467782096173"><ele>276.2857142857143</ele><time>2026-05-04T10:23:30Z</time></trkpt><trkpt lat="42.50812637731812" lon="8.854592966727237"><ele>274.85714285714283</ele><time>2026-05-04T10:23:57Z</time></trkpt><trkpt lat="42.508069962717244" lon="8.854546265928473"><ele>273.4285714285714</ele><time>2026-05-04T10:24:06Z</time></trkpt><trkpt lat="42.50802347828675" lon="8.854483325911596"><ele>272.0</ele><time>2026-05-04T10:24:14Z</time></trkpt><trkpt lat="42.507985368033125" lon="8.85441492662773"><ele>272.0</ele><time>2026-05-04T10:24:21Z</time></trkpt><trkpt lat="42.507933620762515" lon="8.85447905616023"><ele>272.0</ele><time>2026-05-04T10:24:45Z</time></trkpt><trkpt lat="42.50793439937198" lon="8.85439359515741"><ele>272.0</ele><time>2026-05-04T10:25:05Z</time></trkpt></trkseg></trk></gpx>